Pos.Doss.NomPrenomTempsVit.Moy.Allure Pos. catégCatégorie Points Club
1 7304 PAQUET AMAURY 00:31:26 19.47 00:03:05 1Séniors 1000
2 7130 DELY ARNAUD 00:33:00 18.55 00:03:14 2Séniors 999 WATT S
3 7278 LEFEBVRE LUDWIG 00:33:08 18.47 00:03:15 1Espoirs H 998 RCA SPA
4 7121 GILLET GEOFFRAY 00:33:31 18.26 00:03:17 3Séniors 997 WACO
5 3146 BOTTIN JOËL 00:34:28 17.76 00:03:23 2Espoirs H 996 WACO
6 7757 CASTERMANS VINCENT 00:35:15 17.36 00:03:27 4Séniors 995
7 7508 PHILIPPE PATRICK 00:35:22 17.3 00:03:28 1Vétérans 1 994 JOGIN ALLETACHE
8 7297 VAN LOO REMI 00:35:39 17.17 00:03:30 5Séniors 993 FCHA
9 7759 SPANU LAURENT 00:35:44 17.13 00:03:30 6Séniors 992 RFCL ROAD RUNNERS
10 7272 HONNAY XAVIER 00:35:53 17.06 00:03:31 7Séniors 991 P8
11 7428 LEKEU FRED 00:36:02 16.98 00:03:32 8Séniors 990
12 7756 CASTERMANS MICHAEL 00:36:04 16.97 00:03:32 9Séniors 989
13 3046 SIMONET DENIS 00:36:11 16.91 00:03:33 10Séniors 988 KIWANIS - SAINT-LOUIS
14 35 PETRY CEDRIC 00:36:16 16.88 00:03:33 11Séniors 987 RFCL
15 7299 THEUNIS GERT 00:36:25 16.81 00:03:34 2Vétérans 1 986
16 7116 ROCKS MIKE 00:36:29 16.77 00:03:35 12Séniors 985 MJ SPORT
17 7491 ARGENTO ANAEL 00:36:33 16.74 00:03:35 13Séniors 984 SERAING ATHL
18 7779 BEAUDUIN XAVIER 00:36:52 16.6 00:03:37 14Séniors 983 AMAY BOXING CLUB
19 175 SCHOLZEN CHRISTOPHE 00:37:06 16.5 00:03:38 15Séniors 982 SOMJA RUNNING
20 7427 DUMOULIN MAXIME 00:37:15 16.43 00:03:39 16Séniors 981
21 7298 VANHEES JEAN 00:37:30 16.32 00:03:41 17Séniors 980 FCHA
22 7735 FLORESCU ALEXANDRE 00:37:34 16.29 00:03:41 18Séniors 979 RFCL
23 7106 DELCHAMBRE FREDERIC 00:37:39 16.25 00:03:41 3Vétérans 1 978
24 127 MÉMURLIN CHRISTOPHE 00:37:56 16.13 00:03:43 19Séniors 977
25 7152 REGNARD ANTOINE 00:38:01 16.1 00:03:44 20Séniors 975 CHAMONIX MONT BLANC
26 7134 BRISY PHILIPPE 00:38:04 16.08 00:03:44 4Vétérans 1 974 MJ SPORT
27 7454 OLIVIER LAURENT 00:38:07 16.06 00:03:44 5Vétérans 1 973
28 3139 GILLET DAVID 00:38:29 15.9 00:03:46 6Vétérans 1 972 TRANSITIONSPORTS
29 7227 RASQUAIN BENOIT 00:38:37 15.85 00:03:47 7Vétérans 1 971
30 3074 ROBINET FRÉDÉRIC 00:38:48 15.77 00:03:48 8Vétérans 1 970 FOULÉES DU PLAISIR
31 7713 BELMILOUD KARIM 00:38:52 15.75 00:03:49 9Vétérans 1 969
32 7281 CORSWAREM PIERRE-HENRI 00:38:56 15.72 00:03:49 21Séniors 968 WAC
33 3091 D INVERNO BRIEUC 00:39:01 15.69 00:03:50 22Séniors 967 IRON NP
34 7419 DEWAIDE ANTONI 00:39:02 15.68 00:03:50 10Vétérans 1 966
35 7294 NURKOWSKI JONATHAN 00:39:17 15.58 00:03:51 23Séniors 965 FCHA
36 181 PAQUES THIERRY 00:39:22 15.55 00:03:52 1Vétérans 2 964 RFCL
37 3134 D AVELINO MICHAEL 00:39:23 15.54 00:03:52 11Vétérans 1 963 SER ATHL
38 186 DEBATTY HERVE 00:39:27 15.51 00:03:52 12Vétérans 1 962
39 14 GARIN YVES 00:39:29 15.5 00:03:52 13Vétérans 1 961 JIA
40 3077 FRISON DAVID 00:39:33 15.47 00:03:53 14Vétérans 1 960 FRISON TEAM
41 7096 ROCKS STEPHANE 00:39:36 15.45 00:03:53 24Séniors 959 ITEN
42 7009 MOIRANO RONALD 00:39:38 15.44 00:03:53 25Séniors 958 BOUBIET TEAM
43 3069 GOCHEL FRÉDÉRIC 00:39:44 15.4 00:03:54 26Séniors 957 FOULÉES DU PLAISIR
44 3084 DOMINIQUE MATHY 00:39:45 15.4 00:03:54 1Vétérans 3 956 HUY ATHLETIC CLUB
45 7371 ESTEBEZ ANDRE 00:39:52 15.35 00:03:55 15Vétérans 1 955 SERAING ATLHETISME
46 173 CHRISTODOULEAS PATRICK 00:39:56 15.33 00:03:55 2Vétérans 2 954 JOG IN ATTITUDE
47 7213 SERVAIS JOHAN 00:40:04 15.27 00:03:56 16Vétérans 1 953
48 7341 SCALAIS JEAN-PHILIPPE 00:40:18 15.19 00:03:57 17Vétérans 1 952
49 7268 DUBRAY FRANÇOIS 00:40:21 15.17 00:03:57 18Vétérans 1 951
50 7043 ROBA FRANCOIS 00:40:26 15.14 00:03:58 27Séniors 950 SOYOUZ
51 7091 HENNUY AMAURY 00:40:29 15.12 00:03:58 28Séniors 949
52 7012 LANGE HUGUES 00:40:32 15.1 00:03:58 29Séniors 948
53 63 DANIELS JEAN-MARC 00:40:33 15.09 00:03:59 3Vétérans 2 947 RUNNERS BERNEAU
54 161 DE HEY BENJAMIN 00:40:34 15.09 00:03:59 3Espoirs H 946 HAUTES FAGNES
55 7397 BANK MARTIN 00:40:36 15.07 00:03:59 30Séniors 945 TCBM
56 239 NIHANT FLORENT 00:40:36 15.07 00:03:59 31Séniors 944 FNJC
57 3131 HOST SANDRINE 00:40:37 15.07 00:03:59 1Ainées 1 943 RFCL-JOGGING PLUS
58 7270 NICOLAS FRANCIS 00:40:37 15.07 00:03:59 4Vétérans 2 942
59 7724 SAYOUD MEHDI 00:40:40 15.05 00:03:59 32Séniors 941
60 7151 VINCENT ADRIEN 00:40:49 14.99 00:04:00 4Espoirs H 940
61 7093 CANMARATA JULIEN 00:40:50 14.99 00:04:00 33Séniors 939
62 24 JORIS JONATHAN 00:40:50 14.99 00:04:00 34Séniors 938 SOMJA RUNNING OLNE
63 3129 DETREZ MARTINE 00:41:03 14.91 00:04:01 2Ainées 1 937 RFCL
64 7335 DE LOCHT MAXENCE 00:41:08 14.88 00:04:02 35Séniors 936
65 7569 JOST DAMIEN 00:41:19 14.81 00:04:03 36Séniors 935
66 7331 PRINCIPATO BENOIT 00:41:20 14.81 00:04:03 37Séniors 934
67 7005 BERG JULIEN 00:41:21 14.8 00:04:03 38Séniors 933
68 7201 MORHET MASON 00:41:26 14.77 00:04:04 39Séniors 932
69 16 BUCKINX ETIENNE 00:41:33 14.73 00:04:04 5Vétérans 2 931 RFCL
70 7353 MEGIDO NATHAN 00:41:34 14.72 00:04:05 40Séniors 930
71 3030 FRANCKART AUGUSTE 00:41:37 14.71 00:04:05 5Espoirs H 928 INSTITUT SAINTE-MARIE
72 19 MERCIADRI LUCA 00:41:39 14.69 00:04:05 41Séniors 927
73 3340 MOMMEN GEOFFREY 00:41:39 14.69 00:04:05 42Séniors 926
74 7386 JACQUET THOMAS 00:41:42 14.68 00:04:05 43Séniors 925
75 7245 LEMESTREZ ODIN 00:41:43 14.67 00:04:05 6Espoirs H 924
76 7383 DIEDENEN STEPHEN 00:41:45 14.66 00:04:06 19Vétérans 1 923 DEGROOF PETERCAM
77 7450 DAUBY PIERRE 00:41:47 14.65 00:04:06 44Séniors 922
78 7393 LEHANCE PASCAL 00:41:54 14.61 00:04:06 20Vétérans 1 921 RFCL
79 7424 BURON JEAN YVES 00:41:56 14.59 00:04:07 45Séniors 920
80 7101 MENCHIOR BASTIEN 00:42:02 14.56 00:04:07 46Séniors 919 SERAIN ATH
81 7362 COLLINGE JEROME 00:42:04 14.55 00:04:07 47Séniors 918 P8
82 7097 MICHELIS FRANÇOIS 00:42:12 14.5 00:04:08 48Séniors 917 RUNNING TEAM CONDROZ
83 7285 ROSU MELANIE 00:42:17 14.47 00:04:09 1Dames 916 EMBOURG NATATION
84 68 CHUDYBA JEAN-MARIE 00:42:17 14.47 00:04:09 6Vétérans 2 915 JOG IN ATTITUDE
85 7110 LUCAS CHRISTOPHE 00:42:19 14.46 00:04:09 21Vétérans 1 914 CRICRI
86 3140 QUITTELIER JASON 00:42:20 14.46 00:04:09 49Séniors 913 TUNING TEAM CONDROZ
87 7200 VAN RENTERGHEM BENOITE 00:42:20 14.46 00:04:09 2Dames 912 TRIATHLIEGE
88 7446 JASSELETTE FRANCOIS 00:42:25 14.43 00:04:010 50Séniors 911
89 7494 BRANS BENOIT 00:42:26 14.42 00:04:010 51Séniors 910
90 7510 TOSI IRENE 00:42:32 14.39 00:04:10 3Dames 909 JIA
91 7237 HERBEN GUILLAUME 00:42:35 14.37 00:04:10 52Séniors 908
92 3040 REINDERS CHARLES 00:42:35 14.37 00:04:10 7Espoirs H 907 INSTITUT SAINTE-MARIE
93 7761 FILSFILS MAXIME 00:42:38 14.35 00:04:11 53Séniors 906
94 7283 MONFORT GERMAIN 00:42:52 14.28 00:04:12 54Séniors 905 ARONA
95 3127 BRY OLIVIER 00:42:55 14.26 00:04:12 55Séniors 904 PUISSANCE HUY T
96 7485 VAN TIGGELEN PIERRE-YVES 00:43:00 14.23 00:04:13 56Séniors 903
97 57 BOLLEN PASCAL 00:43:04 14.21 00:04:13 7Vétérans 2 902 SERAING ATHÉTISME
98 7218 LANTIN DYLAN 00:43:07 14.19 00:04:14 8Espoirs H 901
99 3285 KEUTGEN GAUTHIER 00:43:10 14.18 00:04:14 22Vétérans 1 900
100 7730 LEMIRE FREDERIC 00:43:11 14.17 00:04:14 23Vétérans 1 899 TRIATLIEGE
101 3148 PRINSENS GEOFFREY 00:43:15 14.15 00:04:14 57Séniors 898 WACO
102 3357 PAQUE SÉBASTIEN 00:43:21 14.12 00:04:15 58Séniors 897
103 7332 PARMONT THEO 00:43:21 14.12 00:04:15 9Espoirs H 896
104 3142 HENRY GAETAN 00:43:27 14.09 00:04:16 24Vétérans 1 895 VINO TEAM
105 143 JEUKENS MICHEL 00:43:31 14.06 00:04:16 25Vétérans 1 894
106 7355 MEUNIER VINCENT 00:43:35 14.04 00:04:16 59Séniors 893
107 7316 ENGLEBERT FABIAN 00:43:41 14.01 00:04:17 60Séniors 892 JIA
108 7777 CLOSE JEROME 00:43:47 13.98 00:04:18 61Séniors 891 AMAY BOXING CLUB
109 7211 RIGA HADRIEN 00:43:49 13.97 00:04:18 10Espoirs H 890 HUY AC
110 7300 CLOSSET FLORENT 00:43:50 13.96 00:04:18 62Séniors 889
111 7157 DE SAUVAGE CEDRIC 00:43:51 13.96 00:04:18 63Séniors 888
112 7075 GAUDISSEUR LIONEL 00:43:55 13.94 00:04:18 64Séniors 887 RT BRAIVES
113 7147 HONNAY GÉRALD 00:43:59 13.91 00:04:19 65Séniors 886
114 3223 DUBOIS CEDRIC 00:43:59 13.91 00:04:19 66Séniors 885
115 7234 LONEUX MARC 00:44:00 13.91 00:04:19 26Vétérans 1 884
116 7322 D ALESSANDRO MICHAEL 00:44:03 13.89 00:04:19 67Séniors 883
117 7363 DOTRIMONT DIMITRY 00:44:04 13.89 00:04:19 68Séniors 882 OCR BELGIUM WALLONIA
118 3066 CREMER PATRICK 00:44:12 13.85 00:04:20 2Vétérans 3 880 FCHA
119 7085 HUMBLET AURÉLIEN 00:44:14 13.84 00:04:20 69Séniors 879 WAC
120 7349 DELVAUX JEAN-FRANÇOIS 00:44:17 13.82 00:04:20 70Séniors 878
121 7069 LAROCK YORICK 00:44:23 13.79 00:04:21 71Séniors 877
122 7131 MOMMEN JOEL 00:44:25 13.78 00:04:21 8Vétérans 2 876 RIDLEY
123 7221 MARDAGT BERTRAND 00:44:26 13.77 00:04:21 27Vétérans 1 875
124 3143 GRAINDORGE FRÉDÉRIC 00:44:26 13.77 00:04:21 28Vétérans 1 874 VINOTEAM
125 7111 BAUMANS BENOIT 00:44:27 13.77 00:04:21 29Vétérans 1 873 RUNASTOCK
126 7720 KEMPENEERS LEOPOLD 00:44:28 13.76 00:04:22 30Vétérans 1 872
127 7411 LERUTH BASTIEN 00:44:29 13.76 00:04:22 72Séniors 871
128 7036 GAVAGE JULIEN 00:44:30 13.75 00:04:22 73Séniors 870
129 7367 ZANETTI DANIEL 00:44:31 13.75 00:04:22 31Vétérans 1 869 SERUNNERS
130 7380 DETRY ERIC 00:44:36 13.72 00:04:22 32Vétérans 1 868
131 7232 MILAN DAN 00:44:37 13.72 00:04:22 9Vétérans 2 867
132 7719 ROCK STEPHANIE 00:44:38 13.71 00:04:23 4Dames 866
133 7064 GREGOIRE EVE 00:44:41 13.7 00:04:23 5Dames 865
134 3063 DAWANT SÉBASTIEN 00:44:44 13.68 00:04:23 74Séniors 864 CAP NRB
135 7738 LAMBERT KEVIN 00:44:48 13.66 00:04:24 75Séniors 863 BOYARDTEAM
136 7752 DURVIAUX MATHIEU 00:44:58 13.61 00:04:25 76Séniors 862
137 3141 CLAEREN JAN 00:45:04 13.58 00:04:25 77Séniors 861 VELOMAN
138 2884 LANTIN DAMIEN 00:45:04 13.58 00:04:25 78Séniors 860
139 7515 RENARD SIMON 00:45:06 13.57 00:04:25 79Séniors 859
140 7210 JULON CHRISTOPHE 00:45:10 13.55 00:04:26 33Vétérans 1 858 ARONA RUN
141 3164 BINJE VALÉRIE 00:45:14 13.53 00:04:26 3Ainées 1 857
142 7784 FASTRE NICOLAS 00:45:19 13.5 00:04:27 80Séniors 856
143 7796 WEBER MAXIME 00:45:19 13.5 00:04:27 11Espoirs H 855 RUNNING TEAM CONDROZ
144 7440 LECOMTE BENOIT 00:45:20 13.5 00:04:27 34Vétérans 1 854
145 7445 LION PASCAL 00:45:22 13.49 00:04:27 35Vétérans 1 853
146 7045 MARTINESSE EMMANUEL 00:45:29 13.46 00:04:28 81Séniors 852 FAC
147 7038 RORIVE NICOLAS 00:45:33 13.44 00:04:28 82Séniors 851
148 7500 GROSJEAN GASPARD 00:45:36 13.42 00:04:28 83Séniors 850
149 7169 DU BOIS PIERRE-YVES 00:45:38 13.41 00:04:28 84Séniors 849
150 240 NIHANT FABIAN 00:45:40 13.4 00:04:29 10Vétérans 2 848 FNJC
151 7269 GUILMAIN JEROME 00:45:41 13.4 00:04:29 36Vétérans 1 847
152 7267 MOULIN PIERRE 00:45:43 13.39 00:04:29 85Séniors 846
153 7080 DEFLANDRE QUENTIN 00:45:44 13.38 00:04:29 86Séniors 845
154 7755 HMANOU REDWAN 00:45:44 13.38 00:04:29 87Séniors 844
155 3315 LERUSSE PHILIPPE 00:45:46 13.37 00:04:29 11Vétérans 2 843
156 7448 ANDRE MAXIME 00:45:47 13.37 00:04:29 88Séniors 842
157 7495 BABITZ STEVE 00:45:48 13.36 00:04:29 89Séniors 841
158 7398 WEIDNER DANIEL 00:45:48 13.36 00:04:29 3Vétérans 3 840
159 7797 MORAS FREDERIC 00:45:50 13.35 00:04:30 37Vétérans 1 839
160 3061 RENAULT GREGORY 00:45:53 13.34 00:04:30 38Vétérans 1 838 BICHETTE
161 7354 VAN LANGEVELD ROGER 00:45:57 13.32 00:04:30 4Vétérans 3 837 WACO
162 180 PAQUES BENOÎT 00:46:01 13.3 00:04:31 90Séniors 836 RFCL
163 7493 MALOIR QUENTIN 00:46:03 13.29 00:04:31 91Séniors 835
164 3289 LAFLEUR CHARLES 00:46:04 13.29 00:04:31 92Séniors 834
165 7191 TOURNOY TERENCE 00:46:05 13.28 00:04:31 12Espoirs H 832
166 7782 LAMBRIX THIERRY 00:46:05 13.28 00:04:31 39Vétérans 1 831
167 7162 MACQ VINCENT 00:46:07 13.27 00:04:31 40Vétérans 1 830
168 7186 BOUCHAT WILLIAM 00:46:09 13.26 00:04:31 93Séniors 829
169 7144 GEVERS CORENTIN 00:46:12 13.25 00:04:32 94Séniors 828
170 3326 MACORS KEVIN 00:46:13 13.24 00:04:32 95Séniors 827
171 7175 SCHOUTTETEN KENNY 00:46:16 13.23 00:04:32 96Séniors 826
172 7173 SCHOUTTETEN ALAN 00:46:19 13.21 00:04:32 97Séniors 825
173 3215 DENDAL DIDIER 00:46:21 13.2 00:04:33 12Vétérans 2 824
174 7102 BAMBRAIN JEROME 00:46:21 13.2 00:04:33 98Séniors 823
175 7303 POUNAY STEPHANE 00:46:23 13.19 00:04:33 99Séniors 822
176 51 KNAPEN LAURENT 00:46:25 13.18 00:04:33 5Vétérans 3 821 JOGIN ATTITUDE
177 7456 LENS PAULINE 00:46:27 13.18 00:04:33 6Dames 820
178 7455 JADOT THOMAS 00:46:27 13.18 00:04:33 100Séniors 819
179 7192 MARECHAL THOMAS 00:46:33 13.15 00:04:34 101Séniors 818
180 3132 NÉLIS RAPHAËL 00:46:34 13.14 00:04:34 102Séniors 817 RUN?ESSENCE
181 7412 BOXUS NATHAN 00:46:35 13.14 00:04:34 103Séniors 816
182 3337 MÉTENS LUCAS 00:46:41 13.11 00:04:35 13Espoirs H 815
183 7758 NAWEZI NELSON 00:46:45 13.09 00:04:35 104Séniors 814
184 3125 MATHELART JULIEN 00:46:46 13.09 00:04:35 105Séniors 813 NENETTE
185 7273 STOQUART THEO 00:46:46 13.09 00:04:35 14Espoirs H 812 SAINT MARIE ISMH
186 7260 SEYNAEVE BENOIT 00:46:47 13.08 00:04:35 41Vétérans 1 811 RC NAMUR
187 7475 SEUTIN GILLES 00:46:47 13.08 00:04:35 106Séniors 810
188 7261 PIRE STEVE 00:46:50 13.07 00:04:35 107Séniors 809
189 7339 STURAM NICOLAS 00:46:51 13.06 00:04:36 108Séniors 808
190 7276 DE LA CRUZ ROOLA ADRIENNE 00:46:53 13.05 00:04:36 7Dames 807
191 3019 LAGRANGE AXEL 00:46:54 13.05 00:04:36 109Séniors 806 ABBAYE DE FLÔNE
192 7277 BONGARD GEOFFREY 00:46:58 13.03 00:04:36 110Séniors 805
193 7368 DOL MAXIME 00:46:59 13.03 00:04:36 111Séniors 804 MJ SPORT
194 3300 LANSSENS SEBASTIEN 00:46:59 13.03 00:04:36 112Séniors 803
195 7071 MIEZAL THOMAS 00:47:00 13.02 00:04:36 113Séniors 802
196 7041 STEUCKERS NICOLAS 00:47:03 13.01 00:04:37 15Espoirs H 801 ISMH
197 7028 BLACHERE ERIC 00:47:03 13.01 00:04:37 13Vétérans 2 800 LES FOULÉES DU PLAISIR
198 7505 PIZZINATO LORENZO 00:47:03 13.01 00:04:37 114Séniors 799
199 7145 LAMBION DENIS 00:47:07 12.99 00:04:37 115Séniors 798
200 3363 PIEDBOEUF HERVE 00:47:07 12.99 00:04:37 116Séniors 797
201 7425 FOGUENNE JOSE 00:47:12 12.97 00:04:38 14Vétérans 2 796
202 3184 CLÉMENT EMELINE 00:47:13 12.96 00:04:38 8Dames 795
203 3244 GAUTHY MATTHIEU 00:47:14 12.96 00:04:38 117Séniors 794
204 3031 GODEFROID MÉLANIE 00:47:15 12.95 00:04:38 9Dames 793 INSTITUT SAINTE-MARIE
205 7414 LOFORTE ROSARIO 00:47:15 12.95 00:04:38 42Vétérans 1 792
206 3081 D ANTUONO MICHELE 00:47:21 12.93 00:04:39 15Vétérans 2 791 HABAY RUNNERS CLUB
207 3322 LORIAUX THOMAS 00:47:22 12.92 00:04:39 118Séniors 790
208 7122 COOSEMANS MARIE 00:47:23 12.92 00:04:39 10Dames 789 RCA SPA
209 7728 MARCHAL VALENTIN 00:47:23 12.92 00:04:39 119Séniors 788
210 7468 COUMONT LORYS 00:47:24 12.91 00:04:39 16Espoirs H 787
211 7430 BRAGARD LUDOVIC 00:47:25 12.91 00:04:39 120Séniors 785
212 7266 AUQUIER GERY 00:47:26 12.9 00:04:39 6Vétérans 3 784 OCAN
213 7431 FRANCOIS NICOLAS 00:47:26 12.9 00:04:39 121Séniors 783
214 3206 DELANDE YANNIC 00:47:26 12.9 00:04:39 43Vétérans 1 782
215 7381 CHABOTHIER BRUNO 00:47:27 12.9 00:04:39 44Vétérans 1 781
216 7451 PETITJEAN PHILIPPE 00:47:36 12.86 00:04:40 16Vétérans 2 780
217 3135 ORBAN COLINNE 00:47:42 12.83 00:04:41 11Dames 779 SER ATHL
218 7313 MODAERT ROBIN 00:47:44 12.82 00:04:41 17Espoirs H 778
219 65 SAVELBERG PASCAL 00:47:45 12.82 00:04:41 45Vétérans 1 777 ROAD RUNNERS
220 7248 RASQUAIN BERTRAND 00:47:45 12.82 00:04:41 46Vétérans 1 776
221 7263 COP DIMITRI 00:47:46 12.81 00:04:41 122Séniors 775
222 7773 MICHEL OLIVER 00:47:46 12.81 00:04:41 47Vétérans 1 774
223 7707 IENCO BRUNO 00:47:47 12.81 00:04:41 17Vétérans 2 773
224 3176 BUYS JEAN-PIERRE 00:47:48 12.8 00:04:41 18Vétérans 2 772
225 7516 RENARD BENJAMIN 00:47:49 12.8 00:04:41 123Séniors 771
226 7388 MORVAL CHRISTOPHE 00:47:51 12.79 00:04:41 124Séniors 770
227 7474 LEGROS HADRIEN 00:47:51 12.79 00:04:41 ?
228 7049 VAN DE VOORDE QUENTIN 00:47:52 12.79 00:04:42 125Séniors 769
229 7126 GRATIEN JUSTIN 00:47:55 12.77 00:04:42 126Séniors 768 P8
230 7460 PECHEUR RAPHAEL 00:47:57 12.76 00:04:42 127Séniors 767
231 350 WEERTS JEAN 00:47:59 12.75 00:04:42 48Vétérans 1 766
232 7055 PIRET BENJAMIN 00:48:01 12.75 00:04:42 128Séniors 765
233 7329 GOBERT ROMAIN 00:48:02 12.74 00:04:43 18Espoirs H 764
234 7118 BOSCOLO MANUEL 00:48:03 12.74 00:04:43 49Vétérans 1 763 J.I.A
235 7413 SCIFO ROSARIO 00:48:04 12.73 00:04:43 50Vétérans 1 762
236 7208 WIMOTTE ALEXANDRE 00:48:06 12.72 00:04:43 51Vétérans 1 761
237 7207 DIDION JEAN-FRANCOIS 00:48:06 12.72 00:04:43 52Vétérans 1 760
238 7103 FADISTA RAFAEL 00:48:06 12.72 00:04:43 53Vétérans 1 759 VINOTEAM
239 7044 JAMOTTE BENJAMIN 00:48:07 12.72 00:04:43 129Séniors 758
240 3175 BUYS BENJAMIN 00:48:09 12.71 00:04:43 130Séniors 757
241 7501 COUNSON MAXIME 00:48:10 12.71 00:04:43 131Séniors 756
242 7612 LAMPROYE DAVID 00:48:10 12.71 00:04:43 132Séniors 755
243 7320 CHARLOT LOIC 00:48:11 12.7 00:04:43 133Séniors 754
244 7372 EVRARD NICOLAS 00:48:12 12.7 00:04:44 134Séniors 753
245 3436 ENGLEBERT YOURI 00:48:12 12.7 00:04:44 19Espoirs H 752
246 3262 HANSOUL JULIEN 00:48:13 12.69 00:04:44 135Séniors 751
247 3297 LAMATTINA VINCENT 00:48:14 12.69 00:04:44 54Vétérans 1 750
248 7204 LEPAGE GREGORY 00:48:17 12.68 00:04:44 55Vétérans 1 749 LES JOB S
249 7330 HANOZET ROMAIN 00:48:25 12.64 00:04:45 20Espoirs H 748
250 7001 RICHEL NICOLAS 00:48:26 12.64 00:04:45 136Séniors 747 ECOLE DE BEN-AHIN
251 7506 BOLAND OLIVIER 00:48:26 12.64 00:04:45 137Séniors 746 LIEGEOISE
252 7733 TADINO FREDERIC 00:48:27 12.63 00:04:45 56Vétérans 1 745
253 7416 DE PASQUA PIERRE 00:48:28 12.63 00:04:45 138Séniors 744
254 7344 L HOIR KEVIN 00:48:28 12.63 00:04:45 139Séniors 743
255 3279 KELDERMANS SAM 00:48:30 12.62 00:04:45 140Séniors 742
256 3020 LAGRANGE ROMÉO 00:48:32 12.61 00:04:45 ? ABBAYE DE FLÔNE
257 3271 JAA DOMINIQUE 00:48:33 12.61 00:04:46 57Vétérans 1 741
258 7098 COUNE JEAN 00:48:34 12.6 00:04:46 141Séniors 740 CLAVIER
259 7396 PELET GILLES 00:48:37 12.59 00:04:46 142Séniors 739
260 3185 CLOSSET GUILLAUME 00:48:38 12.58 00:04:46 143Séniors 737
261 7783 RICHARD QUENTIN 00:48:39 12.58 00:04:46 144Séniors 736
262 225 LETELLIER JEAN-LUC 00:48:39 12.58 00:04:46 19Vétérans 2 735
263 3432 WARNANTS GEOFFRAY 00:48:40 12.58 00:04:46 145Séniors 734
264 3145 VANDENSAVEL ALBERT 00:48:40 12.58 00:04:46 7Vétérans 3 733 WAC
265 7340 DESSART BRUNO 00:48:45 12.55 00:04:47 146Séniors 732
266 7133 RIFFON PIERRE 00:48:45 12.55 00:04:47 147Séniors 731 RHCH
267 7315 LEMAL DENIS 00:48:45 12.55 00:04:47 20Vétérans 2 730
268 3288 LACRIOLA JONATHAN 00:48:46 12.55 00:04:47 148Séniors 729
269 7766 BERTRAND XAVIER 00:48:46 12.55 00:04:47 149Séniors 728 IMMOBILIERE BERTRAND
270 23 BURNIAT OLIVIER 00:48:46 12.55 00:04:47 150Séniors 727 TOUJOURS ALLURE
271 7125 GRATIEN JOFFREY 00:48:50 12.53 00:04:47 151Séniors 726
272 7242 STELLA ANDY 00:48:51 12.53 00:04:47 152Séniors 725
273 3121 DEJARDIN CHRISTELLE 00:48:53 12.52 00:04:48 4Ainées 1 724 LES FRELONS
274 7296 URBANI JEAN-MARC 00:48:54 12.52 00:04:48 21Vétérans 2 723 SER ATHL
275 7753 MODAVE ANTHONI 00:48:55 12.51 00:04:48 153Séniors 722
276 194 DETRIXHE CHRISTOPHE 00:48:57 12.5 00:04:48 58Vétérans 1 721 WAC
277 7560 COMITO MICHAEL 00:48:57 12.5 00:04:48 154Séniors 720
278 7163 BERTRAND PATRICK 00:48:58 12.5 00:04:48 59Vétérans 1 719
279 7307 GUSTIN THIBAUT 00:48:58 12.5 00:04:48 155Séniors 718
280 7253 TUTELAIRE GOEFFREY 00:48:58 12.5 00:04:48 156Séniors 717
281 2878 BORREY WIM 00:49:01 12.49 00:04:48 157Séniors 716
282 7507 DUCARME DIMITRI 00:49:02 12.48 00:04:48 158Séniors 715 LIEGEOISE
283 7480 ROSS DRIGO 00:49:10 12.45 00:04:49 159Séniors 714
284 7754 DELHALLE AXEL 00:49:12 12.44 00:04:49 160Séniors 713
285 54 ROUFOSSE JOEFREY 00:49:15 12.43 00:04:50 22Vétérans 2 712 VOUS RUN
286 3075 ROBINET MICHEL 00:49:17 12.42 00:04:50 23Vétérans 2 711 FOULÉES DU PLAISIR
287 7708 GENICOT JULIEN 00:49:18 12.41 00:04:50 161Séniors 710
288 7772 BORLON ALEXANDRE 00:49:19 12.41 00:04:50 162Séniors 709 OCAN
289 7567 DOTRIMONT OLIVIER 00:49:20 12.41 00:04:50 60Vétérans 1 708
290 7306 VANVINCKENROYE PAUL 00:49:21 12.4 00:04:50 24Vétérans 2 707
291 7410 CREVELS YANNICK 00:49:21 12.4 00:04:50 163Séniors 706
292 7310 MATAGNE BENOIT 00:49:22 12.4 00:04:50 61Vétérans 1 705
293 7158 LEMAIRE REGINALD 00:49:24 12.39 00:04:51 164Séniors 704
294 7319 SANELLI CARLOS 00:49:26 12.38 00:04:51 165Séniors 703
295 3105 WANZOUL MATHIEU 00:49:26 12.38 00:04:51 166Séniors 702 JCPMF VERLAINE
296 7023 CORNET CHRISTOPHE 00:49:27 12.38 00:04:51 62Vétérans 1 701 LES FOULÉES DU PLAISIR
297 7247 EVRARD THOMAS 00:49:28 12.37 00:04:51 167Séniors 700
298 7013 SAM CHRISTIAN 00:49:28 12.37 00:04:51 63Vétérans 1 699 NLC
299 3372 POGORZELSKI JULIAN 00:49:31 12.36 00:04:51 168Séniors 698
300 7467 GUBIN JUSTINE 00:49:32 12.36 00:04:51 12Dames 697
301 3361 PHILIPPOT ROMAIN 00:49:33 12.35 00:04:51 169Séniors 696
302 3324 LUX MERIADEC 00:49:34 12.35 00:04:52 170Séniors 695
303 7395 DELHALLE JULIEN 00:49:35 12.34 00:04:52 171Séniors 694
304 3211 DELENS ALAIN 00:49:37 12.33 00:04:52 172Séniors 693
305 7786 DE CECCO JONATHAN 00:49:37 12.33 00:04:52 173Séniors 692 JCPMF
306 7566 JAVAUX SEBASTIEN 00:49:38 12.33 00:04:52 174Séniors 691 CHAUVE ET BARBU
307 3058 SAUVAGE MARIE-HÉLÈNE 00:49:40 12.32 00:04:52 13Dames 689 ARONA RUN
308 7487 LACOLA PIERO 00:49:41 12.32 00:04:52 25Vétérans 2 688
309 7305 DULIEU SAMUEL 00:49:41 12.32 00:04:52 175Séniors 687
310 3416 VANDEVELD MANUEL 00:49:42 12.31 00:04:52 64Vétérans 1 686
311 7466 VANOLANDE BRIEUC 00:49:43 12.31 00:04:52 176Séniors 685
312 3217 DETINE PATRICK 00:49:43 12.31 00:04:52 65Vétérans 1 684
313 7795 BARON NICOLAS 00:49:43 12.31 00:04:52 177Séniors 683 RUNNING TEAM CONDROZ
314 3359 PAULUS FRANCK 00:49:45 12.3 00:04:53 178Séniors 682
315 7799 BACKEN HUGO 00:49:47 12.29 00:04:53 21Espoirs H 681
316 7288 GENDEBIEN FREDERIC 00:49:48 12.29 00:04:53 179Séniors 680 I LOVE RUNNING LIEGE
317 7426 HANQUET YVES 00:49:50 12.28 00:04:53 26Vétérans 2 679
318 215 SOMJA JEAN-PHILIPPE 00:49:51 12.28 00:04:53 180Séniors 678 SOMJA RUNNING
319 7370 LAURENT DAVID 00:49:52 12.27 00:04:53 181Séniors 677
320 3201 DE VILLE DE GOYET TANGUY 00:49:55 12.26 00:04:54 182Séniors 676
321 7107 LEROUX MARTIN 00:49:55 12.26 00:04:54 183Séniors 675 FLONE
322 3296 LAMATTINA THOMAS 00:49:55 12.26 00:04:54 22Espoirs H 674
323 3172 BRIFFOZ ANDY 00:49:56 12.26 00:04:54 184Séniors 673
324 3325 MACHIELS STÉPHANIE 00:49:58 12.25 00:04:54 14Dames 672
325 3120 GYEN MICHAËL 00:49:59 12.24 00:04:54 66Vétérans 1 671 LES ÉOLES
326 7449 GRANDJEAN FRANCOIS 00:50:01 12.24 00:04:54 185Séniors 670
327 7774 DOCQUIER DELPHINE 00:50:02 12.23 00:04:54 15Dames 669
328 7128 CADPEGGIO LUCIEN 00:50:05 12.22 00:04:55 67Vétérans 1 668 SER ATHL
329 174 HERZET CLAUDE 00:50:07 12.21 00:04:55 8Vétérans 3 667
330 7800 VANDERHEYDEN BASTIEN 00:50:13 12.19 00:04:55 186Séniors 666
331 7311 VALDES FABIAN 00:50:17 12.17 00:04:56 68Vétérans 1 665
332 7418 ROTA FIONA 00:50:20 12.16 00:04:56 16Dames 664
333 3213 DELOYER ARNAUD 00:50:23 12.15 00:04:56 187Séniors 663
334 7181 MATAGNE NICOLAS 00:50:24 12.14 00:04:56 188Séniors 662
335 7348 LEDENT CORENTIN 00:50:27 12.13 00:04:57 189Séniors 661
336 3118 BELAIRE MICHAEL 00:50:28 12.13 00:04:57 190Séniors 660 LA BANDA
337 7084 ZUCCARINI ENZO 00:50:30 12.12 00:04:57 191Séniors 659
338 3214 DELWICHE BAPTISTE 00:50:34 12.1 00:04:57 192Séniors 658
339 7387 CHUKART GREGORY 00:50:35 12.1 00:04:58 69Vétérans 1 657
340 7519 VAN BINST QUENTIN 00:50:37 12.09 00:04:58 193Séniors 656
341 7484 DENIS ARNAUD 00:50:38 12.09 00:04:58 194Séniors 655
342 7124 DELVAUX ANTOINE 00:50:38 12.09 00:04:58 195Séniors 654
343 7379 LEVAQUE DELPHINE 00:50:39 12.08 00:04:58 5Ainées 1 653
344 7442 BELLAIRE JONATHAN 00:50:39 12.08 00:04:58 70Vétérans 1 652
345 7518 HUBEAUX HERVE 00:50:40 12.08 00:04:58 196Séniors 651
346 7520 ROSMEULEN FRANCOIS 00:50:40 12.08 00:04:58 197Séniors 650
347 7732 CHARLES MANU 00:50:41 12.07 00:04:58 71Vétérans 1 649
348 3086 MICHOTTE SÉBASTIEN 00:50:42 12.07 00:04:58 72Vétérans 1 648 HUY ATHLETIC CLUB
349 7109 VANDENBOSCH MICHELANGELO 00:50:45 12.06 00:04:59 73Vétérans 1 647
350 3059 HEINE ARTHUR 00:50:49 12.04 00:04:59 ? AU BUCK
351 7700 MAYELE HUDO 00:50:51 12.04 00:04:59 198Séniors 646
352 7108 DE MOOR PIERRE 00:50:51 12.04 00:04:59 199Séniors 645 FLONE
353 7546 BASTIEN RENARD 00:50:52 12.03 00:04:59 200Séniors 644
354 3400 SPRUYT CHRISTOPHE 00:50:54 12.02 00:04:59 74Vétérans 1 642
355 7301 SEVRIN FABRICE 00:50:58 12.01 00:04:60 201Séniors 641 RUNNING FERNELMONT
356 7177 LETIHON FABIAN 00:50:59 12 00:04:60 75Vétérans 1 640
357 85 LESSAIN ERIC 00:51:04 11.98 00:05:00 27Vétérans 2 639
358 3240 GABRIEL BENJAMIN 00:51:11 11.96 00:05:01 202Séniors 638
359 3021 ANTSON VLADY 00:51:13 11.95 00:05:01 23Espoirs H 637 INSTITUT SAINTE-MARIE
360 7217 KINET GARY 00:51:13 11.95 00:05:01 203Séniors 636 LES JOB S
361 7702 GEORIS PASCAL 00:51:14 11.95 00:05:01 76Vétérans 1 635 LES JOB S
362 3282 KERSTEN RENAUD 00:51:15 11.94 00:05:01 204Séniors 634
363 3260 GRAFF MICHEL 00:51:15 11.94 00:05:01 9Vétérans 3 633
364 7154 BERTRAND DOMINIQUE 00:51:15 11.94 00:05:01 28Vétérans 2 632 WACO
365 7326 CORNET REGINE 00:51:17 11.93 00:05:02 6Ainées 1 631
366 7464 HENROT VALENTIN 00:51:18 11.93 00:05:02 205Séniors 630
367 7573 COLON FLORIAN 00:51:19 11.93 00:05:02 206Séniors 629
368 98 MANFÉ DIMITRI 00:51:19 11.93 00:05:02 207Séniors 628
369 7390 CEROY PIERRE-YVES 00:51:21 11.92 00:05:02 208Séniors 627
370 7778 WOLWERTZ ALAIN 00:51:22 11.91 00:05:02 77Vétérans 1 626
371 7406 SIMON BRUNO 00:51:23 11.91 00:05:02 10Vétérans 3 625
372 170 BATTISTINI LUCIANO 00:51:24 11.91 00:05:02 11Vétérans 3 624 NEUPRE AC
373 7794 VANDEBERG PIERRE-YVES 00:51:25 11.9 00:05:02 209Séniors 623
374 7259 LEROY ERIC 00:51:25 11.9 00:05:02 78Vétérans 1 622
375 7525 LIENARD ALAIN 00:51:26 11.9 00:05:03 210Séniors 621
376 3225 DUBOIS FABRICE 00:51:27 11.9 00:05:03 211Séniors 620
377 7073 CORNELIS PATRICE 00:51:30 11.88 00:05:03 29Vétérans 2 619 CAP NRB
378 27 COLLIN MANON 00:51:31 11.88 00:05:03 17Dames 618
379 7423 DOUFFET RENAUD 00:51:32 11.88 00:05:03 212Séniors 617
380 7197 DELHOUGNE NICOLAS 00:51:34 11.87 00:05:03 213Séniors 616
381 7070 MIEZAL MARC 00:51:35 11.86 00:05:03 79Vétérans 1 615 CAP NRB
382 7703 DESTREE AMBROISE 00:51:37 11.86 00:05:04 18Dames 614
383 7229 GILLES ROBERT 00:51:37 11.86 00:05:04 30Vétérans 2 613 NEUPRE AC
384 7435 LAPRELE MICHEL 00:51:37 11.86 00:05:04 80Vétérans 1 612
385 221 MORANA EDOUARD 00:51:42 11.84 00:05:04 31Vétérans 2 611 SER ATHL
386 3380 REINDERS ELISABETH 00:51:45 11.83 00:05:04 19Dames 610
387 7407 FRONZEE JEROME 00:51:47 11.82 00:05:05 214Séniors 609
388 7369 LAMBION PIERRE 00:51:48 11.81 00:05:05 215Séniors 608
389 7581 DIERICKX SIMON 00:51:50 11.81 00:05:05 216Séniors 607
390 3287 KLINKENBERG LAURENT 00:51:51 11.8 00:05:05 81Vétérans 1 606
391 7365 BAWIN BENOIT 00:51:52 11.8 00:05:05 82Vétérans 1 605 LA BANDA
392 7504 MEYER FLORENT 00:51:52 11.8 00:05:05 217Séniors 604
393 3173 BRIFFOZ LUDO 00:51:54 11.79 00:05:05 32Vétérans 2 603
394 7439 FASTRE GILLES 00:51:54 11.79 00:05:05 218Séniors 602
395 7282 DEBOUNY FABIAN 00:51:55 11.79 00:05:05 219Séniors 601
396 3396 SIMKAY SEBASTIEN 00:51:56 11.78 00:05:05 220Séniors 600
397 7223 SACCHI CHRISTOPHE 00:51:56 11.78 00:05:05 221Séniors 599
398 3154 AMIABLE HUGO 00:51:57 11.78 00:05:06 ?
399 3155 ANCIA XAVIER 00:51:58 11.78 00:05:06 222Séniors 598
400 3194 CUPPENS AMAURY 00:52:00 11.77 00:05:06 223Séniors 597
401 7129 BEAUCLERCQ MARGAUX 00:52:05 11.75 00:05:06 1Espoirs D 596
402 7750 HONNAY ROMUALD 00:52:06 11.75 00:05:06 224Séniors 594
403 3033 KINET MAXIME 00:52:08 11.74 00:05:07 24Espoirs H 593 INSTITUT SAINTE-MARIE
404 7358 KABANDA NOAH 00:52:10 11.73 00:05:07 ?
405 7194 SUMKAY NICOLAS 00:52:10 11.73 00:05:07 225Séniors 592
406 7193 HERBETOT MAXIME 00:52:11 11.73 00:05:07 226Séniors 591
407 7498 DARMONT PIERRE 00:52:20 11.69 00:05:08 83Vétérans 1 590
408 7274 DAL FARRA PASCAL 00:52:21 11.69 00:05:08 84Vétérans 1 589
409 3247 GESTER CÉLINE 00:52:22 11.69 00:05:08 20Dames 588
410 7179 MASSCHELEN FABRICE 00:52:23 11.68 00:05:08 85Vétérans 1 587
411 7384 PLUMIER FREDERIC 00:52:25 11.68 00:05:08 86Vétérans 1 586 ZATAC LIEGE
412 3415 VANDENSAVEL MANON 00:52:27 11.67 00:05:09 21Dames 585
413 7178 ABDELMOUN MOHAMED 00:52:27 11.67 00:05:09 227Séniors 584
414 3290 LAFLEUR SIMON 00:52:32 11.65 00:05:09 25Espoirs H 583
415 3209 DELCHAMBRE VINCENT 00:52:33 11.65 00:05:09 87Vétérans 1 582
416 3190 COUVRUER ISABELLE 00:52:33 11.65 00:05:09 7Ainées 1 581
417 3392 RUOSO GIANNI 00:52:34 11.64 00:05:09 88Vétérans 1 580
418 7765 JASPART STEPHANE 00:52:37 11.63 00:05:010 89Vétérans 1 579
419 7558 COMITO VINCENT 00:52:41 11.62 00:05:010 228Séniors 578 US LIEGE
420 3299 LAMBERT KÉVIN 00:52:43 11.61 00:05:10 229Séniors 577
421 7798 FERRI ROMAIN 00:52:44 11.61 00:05:10 230Séniors 576
422 7486 SCHIFANO ROGER 00:52:47 11.59 00:05:10 90Vétérans 1 575 RITAL RUNNERS
423 7136 VERLAINE JORDAN 00:52:47 11.59 00:05:10 231Séniors 574
424 7206 WILLEM FABRICE 00:52:49 11.59 00:05:11 91Vétérans 1 573
425 7209 MAGNUM THOMAS 00:52:49 11.59 00:05:11 232Séniors 572
426 3398 SMITS DAVID 00:52:49 11.59 00:05:11 92Vétérans 1 571
427 7020 OGER PIERRE 00:52:50 11.58 00:05:11 93Vétérans 1 570 LES EOLES
428 87 TRAN XUAN-MAI 00:52:50 11.58 00:05:11 8Ainées 1 569 ACBBS
429 3272 JAA NATHALIE 00:52:54 11.57 00:05:11 9Ainées 1 568
430 7166 MOOR MATTHIEU 00:52:55 11.57 00:05:11 233Séniors 567
431 7308 LEQUEUX SARAH 00:53:00 11.55 00:05:12 22Dames 566
432 7250 JANNE BERTRAND 00:53:02 11.54 00:05:12 234Séniors 565
433 7781 GILSON JEREMY 00:53:03 11.54 00:05:12 235Séniors 564
434 7244 BAJRAMI NAZMI 00:53:03 11.54 00:05:12 26Espoirs H 563
435 7751 FIRRE THOMAS 00:53:05 11.53 00:05:12 236Séniors 562
436 7509 DEWEZ DOMINIQUE 00:53:10 11.51 00:05:13 33Vétérans 2 561
437 7120 PALUMBO GIUSEPPE 00:53:10 11.51 00:05:13 94Vétérans 1 560
438 7582 BONTEMPI JEREMIE 00:53:11 11.51 00:05:13 237Séniors 559
439 77 STEIMES NATHALIE 00:53:13 11.5 00:05:13 10Ainées 1 558 SER ATHL
440 7095 LEGRAND FRANÇOIS 00:53:17 11.49 00:05:13 238Séniors 557
441 7195 DELHOUGNE BERNARD 00:53:18 11.48 00:05:14 34Vétérans 2 556
442 7578 HEYMANS PASCALE 00:53:19 11.48 00:05:14 1Ainées 2 555
443 3055 SAUVAGE LAURA 00:53:19 11.48 00:05:14 23Dames 554 MR BRICOLAGE HUY
444 7119 DOCCIMASCOLO BALDASSARE 00:53:21 11.47 00:05:14 95Vétérans 1 553 RFC LIEGE
445 3147 DIDONE MICHAEL 00:53:21 11.47 00:05:14 96Vétérans 1 552 WACO
446 7572 GOOSSE GUILLAUME 00:53:26 11.45 00:05:14 239Séniors 551
447 7402 DERKENNE CHRISTIAN 00:53:26 11.45 00:05:14 35Vétérans 2 550
448 7212 GREGOOR FABIAN 00:53:31 11.44 00:05:15 97Vétérans 1 549
449 7762 BEAUDUIN BENJAMIN 00:53:31 11.44 00:05:15 27Espoirs H 547
450 3013 MABEYT KÉVIN 00:53:32 11.43 00:05:15 240Séniors 546 CILE
451 7029 LHOEST NICOLAS 00:53:32 11.43 00:05:15 241Séniors 545 MAGPIE RUNNING HUY
452 7580 MOTCH SIMON 00:53:33 11.43 00:05:15 242Séniors 544
453 3043 JORIS FLORENCE 00:53:36 11.42 00:05:15 24Dames 543 KIWANIS - SAINT-LOUIS
454 7087 LOBET PHILIPPE 00:53:36 11.42 00:05:15 98Vétérans 1 542 RCSPL
455 3318 LIBON PATRICE 00:53:36 11.42 00:05:15 99Vétérans 1 541
456 7443 VERJANS SARAH 00:53:37 11.41 00:05:15 25Dames 540
457 7327 LECLERCQ FABRICE 00:53:38 11.41 00:05:15 243Séniors 539
458 7123 DE COCQURAU BERNARD 00:53:38 11.41 00:05:15 100Vétérans 1 538
459 7172 SARTELET ARNAUD 00:53:38 11.41 00:05:15 244Séniors 537
460 7429 KRZEWINSKI LAURENT 00:53:39 11.41 00:05:16 101Vétérans 1 536
461 7040 MOMMEN KIERAN 00:53:39 11.41 00:05:16 245Séniors 535
462 7053 GERARD SEBASTIEN 00:53:40 11.4 00:05:16 246Séniors 534
463 3151 ABSIL JOEL 00:53:42 11.4 00:05:16 102Vétérans 1 533
464 7280 D ANTUONO MARCO 00:53:43 11.39 00:05:16 103Vétérans 1 532
465 7079 WOUTERS PIERRE 00:53:43 11.39 00:05:16 104Vétérans 1 531
466 7065 BASTIN JEAN-NOËL 00:53:51 11.36 00:05:17 105Vétérans 1 530
467 7092 HOUPRESSE ANDRE 00:53:54 11.35 00:05:17 247Séniors 529
468 3090 NOKIN DANIEL 00:53:55 11.35 00:05:17 36Vétérans 2 528 HUY JE COURS PARTOUT
469 7432 GODEFROID GAETAN 00:53:55 11.35 00:05:17 37Vétérans 2 527
470 7373 STREEL HUBERT 00:53:57 11.34 00:05:17 38Vétérans 2 526
471 163 D AMICO SALVINO 00:53:57 11.34 00:05:17 106Vétérans 1 525
472 7094 MACKELS THIERRY 00:54:00 11.33 00:05:18 39Vétérans 2 524 SERUNNERS
473 7744 LARUELLE ALAIN 00:54:00 11.33 00:05:18 40Vétérans 2 523 SERAING RUNNERS
474 7042 STEUCKERS DAVID 00:54:01 11.33 00:05:18 107Vétérans 1 522
475 7160 GIGLIA DONATO 00:54:02 11.33 00:05:18 41Vétérans 2 521
476 7436 JONET THOMAS 00:54:03 11.32 00:05:18 248Séniors 520
477 7356 FORTIN ANTOINE 00:54:07 11.31 00:05:18 249Séniors 519
478 7318 TOMBALLE FRANCIS 00:54:08 11.31 00:05:18 42Vétérans 2 518
479 7011 MEUNIER FREDERIC 00:54:09 11.3 00:05:19 250Séniors 517
480 3230 DURELLO VALÉRIE 00:54:10 11.3 00:05:19 26Dames 516
481 66 LEFORT PIERRE 00:54:11 11.29 00:05:19 108Vétérans 1 515 A.M.C.
482 3028 FABRE LOÏC 00:54:11 11.29 00:05:19 28Espoirs H 514 INSTITUT SAINTE-MARIE
483 3329 MARCHAL FANNY 00:54:12 11.29 00:05:19 27Dames 513
484 7453 DESIAPEL JEAN 00:54:12 11.29 00:05:19 29Espoirs H 512
485 3274 JADOT JULIEN 00:54:13 11.29 00:05:19 251Séniors 511
486 7400 HALLEUX PIERRE 00:54:15 11.28 00:05:19 109Vétérans 1 510
487 7325 PASQUIERS JEROME 00:54:16 11.28 00:05:19 43Vétérans 2 509
488 7492 MOULET BORIS 00:54:20 11.26 00:05:20 252Séniors 508
489 7293 MEJTDAC MATHIEU 00:54:21 11.26 00:05:20 253Séniors 507
490 7785 DE CECCO FREDERIC 00:54:22 11.26 00:05:20 110Vétérans 1 506 JCPMF
491 3391 ROSKAM JUSTINE 00:54:24 11.25 00:05:20 28Dames 505
492 7452 THYSSEN EMMANUEL 00:54:26 11.24 00:05:20 111Vétérans 1 504
493 7050 VANBRABANT ANNE 00:54:26 11.24 00:05:20 29Dames 503
494 7405 DEGEE SOPHIE 00:54:28 11.24 00:05:20 30Dames 502
495 7257 DEGLER GERALDINE 00:54:28 11.24 00:05:20 31Dames 501 LA BANDA
496 7722 DOERANE GAEL 00:54:33 11.22 00:05:21 30Espoirs H 499
497 7312 MODAERT DIMITRI 00:54:36 11.21 00:05:21 112Vétérans 1 498
498 3336 MERST HUGO 00:54:38 11.2 00:05:21 ?
499 7737 BESONHE MARTIN 00:54:38 11.2 00:05:21 254Séniors 497 BOYARD TEAN
500 3335 MERST CHARLY 00:54:40 11.2 00:05:22 255Séniors 496
501 3187 COLLARD CINDY 00:54:40 11.2 00:05:22 11Ainées 1 495
502 3295 LAMATTINA LUCAS 00:54:41 11.19 00:05:22 ?
503 7010 DETRY AURELIE 00:54:44 11.18 00:05:22 12Ainées 1 494 LES FRELONS
504 7007 MALHERBE GAUDRIC 00:54:45 11.18 00:05:22 256Séniors 493 RUN ESSENCE
505 3208 DELCHAMBRE AXEL 00:54:46 11.17 00:05:22 113Vétérans 1 492
506 7701 WERY MICHAEL 00:54:47 11.17 00:05:22 114Vétérans 1 491
507 7286 TRUSCIA VINCENT 00:54:48 11.17 00:05:22 115Vétérans 1 490
508 7284 NEARNO GAETANA 00:54:48 11.17 00:05:22 13Ainées 1 489
509 7076 TIXHON JEREMIE 00:54:49 11.16 00:05:22 257Séniors 488 LES JOB S
510 3104 MUSIAUX CHRISTOPHE 00:54:50 11.16 00:05:23 258Séniors 487 JCPMF OUFFET
511 7222 GRISARD WILLIAM 00:54:55 11.14 00:05:23 259Séniors 486
512 7587 ALGOET LOIC 00:54:55 11.14 00:05:23 260Séniors 485
513 3412 TIMMERMANN JEAN 00:54:55 11.14 00:05:23 261Séniors 484
514 7196 DESSARD LAURA 00:54:57 11.14 00:05:23 32Dames 483
515 3316 LESAGE OLIVIER 00:54:57 11.14 00:05:23 262Séniors 482
516 3216 DETAILLE OLIVIER 00:54:57 11.14 00:05:23 116Vétérans 1 481
517 7323 GAIOTTI DIANA 00:54:58 11.13 00:05:23 2Ainées 2 480
518 7132 STRAAT FLORINE 00:54:59 11.13 00:05:23 33Dames 479 LES FOULEES DU PLAISIR
519 7345 HANS ALLISSON 00:55:01 11.12 00:05:24 34Dames 478
520 7471 ROUSSELLE JULIEN 00:55:02 11.12 00:05:24 263Séniors 477
521 7346 FRERE VINCENT 00:55:04 11.11 00:05:24 117Vétérans 1 476
522 7187 RASSCHAERT ALEX 00:55:13 11.08 00:05:25 264Séniors 475
523 3032 JAMOULLE SIMON 00:55:17 11.07 00:05:25 31Espoirs H 474 INSTITUT SAINTE-MARIE
524 7235 JANSSIS PIERRE 00:55:19 11.06 00:05:25 265Séniors 473
525 129 MERTENS CAROLINE 00:55:21 11.06 00:05:26 35Dames 472
526 7127 GILLON CLAUDY 00:55:21 11.06 00:05:26 44Vétérans 2 471
527 7171 VAN ROY SYLVAIN 00:55:22 11.05 00:05:26 266Séniors 470
528 3023 BAGUETTE CYRIL 00:55:24 11.05 00:05:26 32Espoirs H 469 INSTITUT SAINTE-MARIE
529 7342 TRATSAERT GREGORY 00:55:25 11.04 00:05:26 267Séniors 468
530 7483 DERROITTE MARTINE 00:55:25 11.04 00:05:26 268Séniors 467
531 7271 CHARLOTIAUX ANNE 00:55:26 11.04 00:05:26 14Ainées 1 466 LA BANDA
532 7712 ANTHOONS VINCENT 00:55:26 11.04 00:05:26 118Vétérans 1 465 FERNELMONT
533 62 PATOUT ARNAUD 00:55:26 11.04 00:05:26 269Séniors 464
534 7780 JAMAR GEOFFREY 00:55:27 11.04 00:05:26 119Vétérans 1 463
535 7479 DENEVMOSTIER ROMUALD 00:55:28 11.03 00:05:26 270Séniors 462
536 3388 ROMANELLI PAOLO 00:55:30 11.03 00:05:26 45Vétérans 2 461
537 7742 DELVA DOMINIQUE 00:55:31 11.02 00:05:27 46Vétérans 2 460
538 7787 GUSTIN NICOLAS 00:55:31 11.02 00:05:27 271Séniors 459 CASTOR MODAVE
539 7361 BERTRAND FABRICE 00:55:31 11.02 00:05:27 120Vétérans 1 458 LES JOB S
540 7461 MARTIN SACHA 00:55:33 11.02 00:05:27 ?
541 3126 BEAUJEAN OLIVIER 00:55:36 11.01 00:05:27 121Vétérans 1 457 P8
542 7054 MAHAUX PASCAL 00:55:38 11 00:05:27 47Vétérans 2 456
543 60 PETERS FABRICE 00:55:39 11 00:05:27 122Vétérans 1 455
544 3404 TASIAUX THIERRY 00:55:39 11 00:05:27 48Vétérans 2 454
545 3234 FIRRE CHRISTIAN 00:55:41 10.99 00:05:28 123Vétérans 1 453
546 3130 PHILIS LAMBRINY 00:55:42 10.99 00:05:28 15Ainées 1 451 RFCL
547 3210 DELCOMMINETTE VALÉRIE 00:55:42 10.99 00:05:28 36Dames 450
548 7473 DISPAS LAURENT 00:55:43 10.98 00:05:28 124Vétérans 1 449 TRIATHLIEGE
549 7565 GERARD CHRISTOPHE 00:55:44 10.98 00:05:28 272Séniors 448 GHR
550 7462 MARTIN RENAUD 00:55:46 10.97 00:05:28 125Vétérans 1 447
551 3389 ROMANELLI QUENTIN 00:55:46 10.97 00:05:28 273Séniors 446
552 7497 ECHALLAOUI HAMZA 00:55:47 10.97 00:05:28 274Séniors 445
553 7176 ALBART VALERIE 00:55:51 10.96 00:05:29 37Dames 444
554 3041 VANOLANDE ELIOTT 00:55:54 10.95 00:05:29 33Espoirs H 443 INSTITUT SAINTE-MARIE
555 3035 LEMAHIEU MARIE 00:55:55 10.94 00:05:29 38Dames 442 INSTITUT SAINTE-MARIE
556 7704 DESTREE DENIS 00:55:56 10.94 00:05:29 49Vétérans 2 441
557 7715 DE CECCO MICHAEL 00:56:02 10.92 00:05:30 126Vétérans 1 440
558 3056 LESCRENIER PHILIPPE 00:56:04 10.92 00:05:30 127Vétérans 1 439 A&S SECURITY
559 11 BOSSELOIR ANNICK 00:56:04 10.92 00:05:30 16Ainées 1 438 RDV RUN BEYNE-HEUSAY
560 3237 FORGET AUBIN 00:56:04 10.92 00:05:30 ?
561 3344 MOREELS NICOLAS 00:56:05 10.91 00:05:30 275Séniors 437
562 7716 PEREZ DIEGO 00:56:07 10.91 00:05:30 34Espoirs H 436
563 7571 INAMA CEDRIC 00:56:07 10.91 00:05:30 276Séniors 435
564 3220 DONNÉ ROBIN 00:56:07 10.91 00:05:30 277Séniors 434
565 7459 HARTKOPF FRANCOISE 00:56:09 10.9 00:05:30 3Ainées 2 433 RFCL
566 7458 BAILLY LUC 00:56:09 10.9 00:05:30 50Vétérans 2 432 RFCL
567 7740 MOTTEN STEPHANIE 00:56:10 10.9 00:05:30 39Dames 431 ZATAC LIEGE
568 7502 WILMET MANU 00:56:12 10.89 00:05:31 128Vétérans 1 430
569 7185 SCHELFHOUT QUENTIN 00:56:13 10.89 00:05:31 278Séniors 429
570 7328 WOTRON PASCAL 00:56:13 10.89 00:05:31 51Vétérans 2 428
571 3076 LESSAGE PASCAL 00:56:16 10.88 00:05:31 129Vétérans 1 427 FRELONS
572 7422 SURENUS SAMUEL 00:56:17 10.87 00:05:31 35Espoirs H 426
573 7421 RORIVE EMMA 00:56:17 10.87 00:05:31 2Espoirs D 425
574 7477 THONET YANNICK 00:56:17 10.87 00:05:31 279Séniors 424
575 3355 PAILHE OLIVIER 00:56:18 10.87 00:05:31 280Séniors 423
576 3283 KETELSLEGERS JULIEN 00:56:18 10.87 00:05:31 281Séniors 422
577 3073 ROBINET EVA 00:56:18 10.87 00:05:31 40Dames 421 FOULÉES DU PLAISIR
578 7790 DELCHAMBRE QUENTIN 00:56:21 10.86 00:05:31 36Espoirs H 420
579 7302 FRISON ERIC 00:56:23 10.85 00:05:32 130Vétérans 1 419
580 7246 KAN YVAN 00:56:25 10.85 00:05:32 ?
581 7024 GASPARD RENAUD 00:56:26 10.84 00:05:32 282Séniors 418
582 147 DRIESSENS PIERRE 00:56:29 10.84 00:05:32 1? 417 SERUNNERS
583 3394 SAWENNE JEAN-FRANÇOIS 00:56:31 10.83 00:05:32 131Vétérans 1 416
584 7478 HALLEUX SOPHIE 00:56:34 10.82 00:05:33 17Ainées 1 415
585 3356 PALOMO FRANCOIS 00:56:34 10.82 00:05:33 4Ainées 2 414
586 3179 CAUZ HENRIK 00:56:41 10.8 00:05:33 283Séniors 413
587 92 DEFAYS FLORIANE 00:56:43 10.79 00:05:34 41Dames 412 RDV RUN
588 7100 MESTDAG OLIVIER 00:56:43 10.79 00:05:34 52Vétérans 2 411
589 3222 DRIANNE DAVID 00:56:44 10.79 00:05:34 284Séniors 410
590 3161 BEGUIN JÉRÔME 00:56:45 10.78 00:05:34 285Séniors 409
591 3171 BRIEN OLIVIER 00:56:47 10.78 00:05:34 132Vétérans 1 408
592 7441 CHABOT EDDY 00:56:47 10.78 00:05:34 133Vétérans 1 407
593 3193 CROYE LAURENT 00:56:48 10.77 00:05:34 286Séniors 406
594 7046 FANIEL JEAN-MARIE 00:56:49 10.77 00:05:34 53Vétérans 2 404 LIONS
595 7749 GERARD SIMON 00:56:50 10.77 00:05:34 134Vétérans 1 403
596 109 HANUSSEK HERVÉ 00:56:51 10.77 00:05:34 287Séniors 402
597 7086 LESSIRE MARIE 00:56:52 10.76 00:05:35 42Dames 401
598 7030 THOMAS OLIVIER 00:56:57 10.75 00:05:35 135Vétérans 1 400
599 3087 OURY VALERIE 00:57:00 10.74 00:05:35 43Dames 399 HUY ATHLETIC CLUB
600 7241 DEVIVIER DENIS 00:57:01 10.73 00:05:35 ?
601 55 RONCATO FABRICE 00:57:02 10.73 00:05:35 288Séniors 398
602 3037 LEYS OLIVIER 00:57:05 10.72 00:05:36 289Séniors 397 INSTITUT SAINTE-MARIE
603 7228 DENEUMOSTIER JEROME 00:57:07 10.71 00:05:36 290Séniors 396
604 7233 YANS FABRICE 00:57:07 10.71 00:05:36 136Vétérans 1 395 LES EOLES
605 134 JACQUIN OLIVIER 00:57:08 10.71 00:05:36 137Vétérans 1 394 LAMO
606 7146 JADIN GAEL 00:57:11 10.7 00:05:36 291Séniors 393
607 7255 FLORKIN MARC 00:57:13 10.7 00:05:37 292Séniors 392
608 2888 GASPAR PHILIPPE 00:57:13 10.7 00:05:37 138Vétérans 1 391 I LOVE RUNNING
609 7517 DEMOIME SOPHIE 00:57:14 10.69 00:05:37 44Dames 390
610 7309 MANTELEERS LIESBETH 00:57:16 10.69 00:05:37 18Ainées 1 389
611 7088 FONTAINE LUCIE 00:57:17 10.68 00:05:37 45Dames 388 HUY JE COURS PARTOUT
612 7577 GAUTHY CHRISTOPHER 00:57:22 10.67 00:05:37 293Séniors 387
613 7611 FRISON DAVID 00:57:22 10.67 00:05:37 139Vétérans 1 386
614 3027 DE COCK CHLOÉ 00:57:23 10.67 00:05:38 3Espoirs D 385 INSTITUT SAINTE-MARIE
615 149 MAURO CALOGERO 00:57:24 10.66 00:05:38 2? 384 SER ATHL
616 7059 BARON LAURELINE 00:57:25 10.66 00:05:38 46Dames 383
617 7252 NINANE BERENGERE 00:57:30 10.64 00:05:38 47Dames 382
618 7251 GREGOIRE CHARLOTTE 00:57:30 10.64 00:05:38 48Dames 381
619 7763 TAYENNE TONY 00:57:38 10.62 00:05:39 37Espoirs H 380
620 7771 FOIS LAETITIA 00:57:39 10.62 00:05:39 19Ainées 1 379
621 3270 HUBERT ISABELLE 00:57:40 10.61 00:05:39 20Ainées 1 378
622 7168 DEL GIUDICE ANGELA 00:57:42 10.61 00:05:39 49Dames 377
623 3429 VRANKEN FRÉDÉRIC 00:57:44 10.6 00:05:40 140Vétérans 1 376
624 3268 HENROTAY FREDERIC 00:57:44 10.6 00:05:40 141Vétérans 1 375
625 3163 BERTRAND ADRIEN 00:57:45 10.6 00:05:40 294Séniors 374
626 7403 LARUELLE JEREMY 00:57:47 10.59 00:05:40 295Séniors 373
627 7025 THIRION LOUIS 00:57:47 10.59 00:05:40 296Séniors 372
628 7156 SOWA VERO 00:57:48 10.59 00:05:40 21Ainées 1 371
629 7556 BALDEWYNS AUDREY 00:57:50 10.58 00:05:40 50Dames 370
630 7004 MCHIELS SOPHIE 00:57:51 10.58 00:05:40 51Dames 369
631 3328 MAILLARD BORIS 00:57:51 10.58 00:05:40 297Séniors 368
632 7447 THION NATHALIE 00:57:54 10.57 00:05:41 22Ainées 1 367
633 7511 COP SEBASTIEN 00:57:56 10.56 00:05:41 298Séniors 366
634 7490 BOWGE STEVE 00:57:58 10.56 00:05:41 299Séniors 365
635 7027 FIEVEZ LISIANNE 00:58:00 10.55 00:05:41 52Dames 364 LES EOLES
636 7184 SCHUNACHER JEROME 00:58:01 10.55 00:05:41 300Séniors 363
637 3128 FELTRIN ANICK 00:58:01 10.55 00:05:41 5Ainées 2 362 RDV RUN - BEYNE HEUSAY
638 7768 BERTRAND MARIE 00:58:02 10.55 00:05:41 53Dames 361 UNION HUY BASKET
639 80 FERNANDEZ HERRERA BERNARD 00:58:03 10.54 00:05:41 142Vétérans 1 360 SODEXO RUN
640 3071 HOUTHOOFDT NATHALIE 00:58:04 10.54 00:05:42 6Ainées 2 359 FOULÉES DU PLAISIR
641 7409 TURINE PATRICK 00:58:04 10.54 00:05:42 301Séniors 358
642 7279 DONNEUX CHARLOTTE 00:58:04 10.54 00:05:42 54Dames 356
643 7767 BAEKE AURÉLIE 00:58:05 10.54 00:05:42 55Dames 355
644 7164 PAQUOT MARTINE 00:58:06 10.53 00:05:42 7Ainées 2 354
645 7725 BREHL CEDRIC 00:58:07 10.53 00:05:42 302Séniors 353
646 7230 LEONET THEO 00:58:11 10.52 00:05:42 38Espoirs H 352
647 7057 LALOUX GUILLAUME 00:58:12 10.52 00:05:42 303Séniors 351
648 7408 EBROIN GEOFFREY 00:58:14 10.51 00:05:43 304Séniors 350
649 3108 HENRARD VINCENT 00:58:23 10.48 00:05:43 54Vétérans 2 349 JCPMF WANZE
650 3403 SWERDTFEGERS FABRICE 00:58:28 10.47 00:05:44 143Vétérans 1 348
651 7114 DANIELNAVARRO FRANCISCO 00:58:28 10.47 00:05:44 144Vétérans 1 347
652 7317 DEWAELE NATHAN 00:58:29 10.46 00:05:44 39Espoirs H 346
653 7099 MESTDAG VICTOR 00:58:29 10.46 00:05:44 40Espoirs H 345
654 7202 RUISSEAU MARIE 00:58:30 10.46 00:05:44 56Dames 344
655 7165 CARLY STÉPHANIE 00:58:33 10.45 00:05:44 57Dames 343
656 7190 HEINE VERONIQUE 00:58:34 10.45 00:05:45 23Ainées 1 342
657 3257 GRAFF DELPHINE 00:58:35 10.45 00:05:45 58Dames 341
658 3367 PIERRE FLORIAN 00:58:35 10.45 00:05:45 305Séniors 340
659 7219 PETIT KENNETH 00:58:37 10.44 00:05:45 306Séniors 339
660 7415 ALTOMARE XAVIER 00:58:41 10.43 00:05:45 307Séniors 338
661 3182 CHRETIEN DOMINIQUE 00:58:45 10.42 00:05:46 8Ainées 2 337
662 7336 DEMEFFE NATHANAEL 00:58:46 10.41 00:05:46 308Séniors 336
663 7726 GANASSIN LUCIA 00:58:47 10.41 00:05:46 9Ainées 2 335 LES FLERONS
664 7499 PIRARD MARGOT 00:58:48 10.41 00:05:46 59Dames 334
665 3115 SPANO NADIA 00:58:49 10.41 00:05:46 60Dames 333 JE COURS POUR MA FORME
666 3269 HENROTIN XAVIER 00:58:49 10.41 00:05:46 309Séniors 332
667 3409 THIRY ETIENNE 00:58:53 10.39 00:05:46 12Vétérans 3 331
668 3005 STRASEK LAURA 00:58:57 10.38 00:05:47 61Dames 330 BODY ATTACK WANZE
669 3281 KERSTEENS CHRISTOPHE 00:59:02 10.37 00:05:47 145Vétérans 1 329
670 7482 HARDENNE CHARLOTTE 00:59:02 10.37 00:05:47 62Dames 328
671 7512 LEGRAND ASTRID 00:59:04 10.36 00:05:47 63Dames 327
672 7249 GERARD ALEXANDRE 00:59:05 10.36 00:05:48 310Séniors 326 TEAM BISTOUILLE
673 7275 MOSSOUX LUDOVIC 00:59:07 10.35 00:05:48 146Vétérans 1 325 TEAM 28
674 3383 RENARD BENOIT 00:59:11 10.34 00:05:48 147Vétérans 1 324
675 3309 LENEFFE AMELIE 00:59:16 10.33 00:05:49 64Dames 323
676 7776 MAHIN JULIEN 00:59:21 10.31 00:05:49 311Séniors 322
677 7016 PORCELLI RINA 00:59:22 10.31 00:05:49 10Ainées 2 321 LES FRELONS
678 7188 BOURGUIGNON PIERRE 00:59:22 10.31 00:05:49 55Vétérans 2 320
679 7476 COMITO LAURA 00:59:24 10.3 00:05:49 24Ainées 1 319 RFCL
680 7385 GIROULLE FRANCOIS 00:59:26 10.3 00:05:50 312Séniors 318
681 7374 TRILLET PIERRE 00:59:28 10.29 00:05:50 313Séniors 317
682 3039 PIRARD JUSTIN 00:59:29 10.29 00:05:50 41Espoirs H 316 INSTITUT SAINTE-MARIE
683 7764 TODDE ALESSIO 00:59:30 10.29 00:05:50 314Séniors 315
684 7747 LIGOT NICOLAS 00:59:30 10.29 00:05:50 315Séniors 314
685 7170 VANDEBERG AURELIE 00:59:31 10.28 00:05:50 65Dames 313
686 7723 ORBAN TANGUY 00:59:32 10.28 00:05:50 316Séniors 312
687 3050 DELVAUX CHRISTELLE 00:59:32 10.28 00:05:50 66Dames 311 MR BRICOLAGE HUY
688 7180 LENEFFE SIMON 00:59:33 10.28 00:05:50 317Séniors 309
689 7364 BONVARLEZ RUDI 00:59:36 10.27 00:05:51 56Vétérans 2 308
690 7739 PARENT NICOLAS 00:59:36 10.27 00:05:51 318Séniors 307
691 7613 LEROUX VALENTINE 00:59:38 10.26 00:05:51 67Dames 306
692 3418 VANROY LUCIE 00:59:40 10.26 00:05:51 68Dames 305
693 7444 CHASSEUR GUILLAUME 00:59:41 10.25 00:05:51 319Séniors 304
694 7113 LECRENIER LUDWIG 00:59:43 10.25 00:05:51 42Espoirs H 303 ABBAYE DE FLONE
695 7489 SELECK LEON 00:59:46 10.24 00:05:52 43Espoirs H 302
696 7225 GENICOT PASCAL 00:59:53 10.22 00:05:52 57Vétérans 2 301
697 7714 SCHOFFENIELS CATHERINE 00:59:57 10.21 00:05:53 69Dames 300 LES FRELONS
698 7382 PLAS GAETAN 00:59:58 10.21 00:05:53 320Séniors 299
699 3153 ALBALA JEAN-FRANÇOIS 00:59:59 10.2 00:05:53 321Séniors 298
700 7523 RENARD ALINE 01:00:03 10.19 00:05:53 70Dames 297
701 7376 WINANT JULIEN 01:00:04 10.19 00:05:53 322Séniors 296
702 3354 PAGANELLI NATACHA 01:00:05 10.19 00:05:53 71Dames 295
703 3252 NIGOT GILLES 01:00:06 10.18 00:05:54 323Séniors 294
704 7375 WINANT JEAN-PIERRE 01:00:06 10.18 00:05:54 13Vétérans 3 293
705 7741 JANIAK MARTINE 01:00:11 10.17 00:05:54 72Dames 292 JCPMF
706 7017 DELFOSSE AMANDINE 01:00:15 10.16 00:05:54 73Dames 291 LES FRELONS
707 3159 ANTONELLI CINDY 01:00:17 10.15 00:05:55 74Dames 290
708 7256 COLLIN AGNES 01:00:18 10.15 00:05:55 11Ainées 2 289
709 7039 MOMMEN SANXI 01:00:20 10.14 00:05:55 324Séniors 288
710 3254 GODELET CHRISTIAN 01:00:21 10.14 00:05:55 148Vétérans 1 287
711 7161 HOULMONT FRANK 01:00:24 10.13 00:05:55 149Vétérans 1 286 JCPMF
712 7078 LHOEST GAETAN 01:00:28 10.12 00:05:56 325Séniors 285 JCPMF
713 5 MATHOT RICHARD 01:00:30 10.12 00:05:56 14Vétérans 3 284
714 7214 NYSSEN FABIENNE 01:00:32 10.11 00:05:56 25Ainées 1 283
715 3099 DUC LAURENT 01:00:34 10.1 00:05:56 326Séniors 282 JCPMF FLÉMALLE
716 7117 GOESSENS MARGOT 01:00:41 10.09 00:05:57 ? ABBAYE DE FLONE
717 7138 DUTRIEWICZ JÉRÉMY 01:00:42 10.08 00:05:57 327Séniors 281
718 7239 BLEYS ESTHER 01:00:43 10.08 00:05:57 75Dames 280
719 7389 PETERS QUENTIN 01:00:46 10.07 00:05:57 44Espoirs H 279
720 3227 DUPONT LAURENCE 01:00:48 10.07 00:05:58 26Ainées 1 278
721 7090 BORSU LOIC 01:00:48 10.07 00:05:58 328Séniors 277
722 7089 RESPEN SARAH 01:00:49 10.06 00:05:58 76Dames 276
723 3334 MAZZOCCO MANUEL 01:00:49 10.06 00:05:58 329Séniors 275
724 7002 HENRARD STEPHANE 01:00:49 10.06 00:05:58 58Vétérans 2 274
725 7148 BRASSART MAUD 01:00:50 10.06 00:05:58 77Dames 273
726 3219 DEVROY ANNE 01:00:55 10.05 00:05:58 12Ainées 2 272
727 7061 SCHUERMANS SUZANNE 01:01:00 10.03 00:05:59 13Ainées 2 271 HUY ATHLETIC CLUB
728 7292 WEGIMONT DIDIER 01:01:02 10.03 00:05:59 150Vétérans 1 270
729 7576 FOSSEPRE CATHERINE 01:01:03 10.02 00:05:59 78Dames 269
730 7575 LAFOSSE JONATHAN 01:01:03 10.02 00:05:59 330Séniors 268
731 7060 LOUIS PIERRE 01:01:04 10.02 00:05:59 151Vétérans 1 267 LES JOB S
732 3124 GRAINDORGE JOHAN 01:01:05 10.02 00:05:59 152Vétérans 1 266 LES JOB S
733 7149 BOLLY AXELLE 01:01:06 10.02 00:05:59 79Dames 265
734 7183 DETMIER CYRIELLE 01:01:16 9.99 00:06:00 80Dames 264
735 7142 LOPEZ JULIE 01:01:16 9.99 00:06:00 81Dames 263
736 7231 WARSEE ARNAUD 01:01:16 9.99 00:06:00 45Espoirs H 261
737 7182 DETMIER CELIA 01:01:16 9.99 00:06:00 82Dames 260
738 3060 WILLEQUET ANNE 01:01:16 9.99 00:06:00 27Ainées 1 259 AU BUCK
739 191 ROBERTI HENRI 01:01:17 9.99 00:06:00 15Vétérans 3 258 AMC
740 7338 FANTIN MATHIEU 01:01:20 9.98 00:06:01 331Séniors 257
741 7377 SKILBECQ KATHY 01:01:21 9.98 00:06:01 14Ainées 2 256
742 7077 DOSSARD INCONNU 01:01:29 9.95 00:06:02 ?
743 7334 LANGE AMANDINE 01:01:30 9.95 00:06:02 83Dames 255
744 7216 GRANIERZI FRANCO 01:01:30 9.95 00:06:02 153Vétérans 1 254
745 7215 HOULLEZ PATRICE 01:01:32 9.95 00:06:02 59Vétérans 2 253
746 7718 NOISET ALAIN 01:01:36 9.94 00:06:02 16Vétérans 3 252 FRELONS
747 7265 LARMINIER CLAUDE 01:01:43 9.92 00:06:03 17Vétérans 3 251 SERUNNERS
748 7721 CLEMENT LAURENCE 01:01:43 9.92 00:06:03 28Ainées 1 250
749 7205 BAUM CYRILLE 01:01:44 9.91 00:06:03 18Vétérans 3 249 LES JOB S
750 7522 RENARD FLORENCE 01:01:49 9.9 00:06:04 84Dames 248
751 3226 DUCHESNE VALÉRIE 01:01:55 9.88 00:06:04 29Ainées 1 247
752 7150 HOEBREGHTS NATACHA 01:01:59 9.87 00:06:05 85Dames 246
753 7066 SIENAERT OLIVIA 01:02:01 9.87 00:06:05 30Ainées 1 245
754 7337 COURTIN GAETAN 01:02:02 9.87 00:06:05 332Séniors 244
755 7514 GRISENDI RACHEL 01:02:05 9.86 00:06:05 86Dames 243
756 7513 HUART NICOLAS 01:02:06 9.86 00:06:05 333Séniors 242
757 7568 MARECHAL LOIC 01:02:07 9.85 00:06:05 334Séniors 241
758 3343 MONTULET LAURANE 01:02:11 9.84 00:06:06 4Espoirs D 240
759 7481 WILLAUME ANTHONY 01:02:12 9.84 00:06:06 335Séniors 239
760 3168 BOUCHAT CYRIL 01:02:15 9.83 00:06:06 336Séniors 238
761 7321 REINDERS VIRGINIE 01:02:17 9.83 00:06:06 87Dames 237
762 7391 DEROT STEPHANE 01:02:17 9.83 00:06:06 337Séniors 236 LES FRELONS
763 3327 MAGE CARINE 01:02:20 9.82 00:06:07 15Ainées 2 235
764 3248 GEYS STÉPHANE 01:02:21 9.82 00:06:07 338Séniors 234
765 3381 REINDERS GEORGES 01:02:22 9.81 00:06:07 19Vétérans 3 233
766 3232 EVANS LOÏC 01:02:32 9.79 00:06:08 339Séniors 232
767 138 CHAGNON MARIE-CLAUDE 01:02:34 9.78 00:06:08 16Ainées 2 231 RDV RUN BEYNE HEUSAY
768 3386 ROGGE AUDREY 01:02:35 9.78 00:06:08 88Dames 230
769 7521 GROVEN VINCENT 01:02:36 9.78 00:06:08 340Séniors 229
770 7727 DENIS ISABELLE 01:02:37 9.77 00:06:08 31Ainées 1 228 FRELONS
771 3038 NYSSEN LOUISE 01:02:38 9.77 00:06:08 89Dames 227 INSTITUT SAINTE-MARIE
772 7236 PEREZ STEPHANIE 01:02:40 9.77 00:06:09 90Dames 226
773 7287 COLLARD FREDERIC 01:02:45 9.75 00:06:09 154Vétérans 1 225
774 7792 KELLETER MARTIN 01:02:47 9.75 00:06:09 46Espoirs H 224
775 234 KALIN THIERRY 01:02:50 9.74 00:06:010 155Vétérans 1 223
776 3150 ABRASSART BENOÎT 01:02:55 9.73 00:06:10 156Vétérans 1 222
777 7240 BLEYS ROMANE 01:02:57 9.72 00:06:10 91Dames 221
778 3311 LENEFFE SARAH 01:02:58 9.72 00:06:10 92Dames 220
779 3387 ROISIN MAXIME 01:02:58 9.72 00:06:10 341Séniors 219
780 7469 DELHALLE MARINE 01:02:59 9.72 00:06:10 93Dames 218
781 7470 FABRY DRISS 01:03:00 9.71 00:06:11 342Séniors 217
782 3136 MORTELÉ RUDY 01:03:05 9.7 00:06:11 60Vétérans 2 216 SERRUNNERS
783 75 CLOSSET DIDIER 01:03:06 9.7 00:06:11 157Vétérans 1 215
784 7746 FRACCARI MINA 01:03:13 9.68 00:06:12 32Ainées 1 213
785 7488 CAMPISI CIRO 01:03:13 9.68 00:06:12 61Vétérans 2 212
786 3374 POUSSEUR LAURENT 01:03:20 9.66 00:06:13 158Vétérans 1 211
787 7579 DENEUMOSTIER ROMUALD 01:03:21 9.66 00:06:13 343Séniors 210
788 3425 VELZ LUDOVIC 01:03:23 9.66 00:06:13 344Séniors 209
789 7586 DENIS MARION 01:03:26 9.65 00:06:13 94Dames 208
790 7585 SONCK COLIN 01:03:26 9.65 00:06:13 345Séniors 207
791 7793 LAMBOTTE CLEMENT 01:03:27 9.65 00:06:13 346Séniors 206
792 3382 REMY ANNETTE 01:03:37 9.62 00:06:14 33Ainées 1 205
793 7524 DUMONT LOUISE 01:03:38 9.62 00:06:14 95Dames 204
794 7557 HAGELSTEENS MARC 01:03:38 9.62 00:06:14 159Vétérans 1 203
795 7745 WOZNIAK MARTIN 01:03:38 9.62 00:06:14 347Séniors 202
796 3349 NICOLAS LAURELINE 01:03:38 9.62 00:06:14 96Dames 201
797 3160 ARNOLIS CATHERINE 01:03:46 9.6 00:06:15 97Dames 200
798 3313 LEROY JONATHAN 01:03:53 9.58 00:06:16 348Séniors 199
799 3241 GALÈRE GEOFFREY 01:03:54 9.58 00:06:16 160Vétérans 1 198
800 7392 RENARD NOEL 01:03:57 9.57 00:06:16 62Vétérans 2 197
801 3167 BOLEN PIERRE-YVES 01:03:58 9.57 00:06:16 161Vétérans 1 196
802 3410 THOMAS DENIS 01:03:59 9.56 00:06:16 349Séniors 195
803 3095 SPRIMONT MADISON 01:04:01 9.56 00:06:17 98Dames 194 JCPMF
804 7220 GERARD MAXIME 01:04:06 9.55 00:06:17 350Séniors 193
805 3196 DAL MASO MATHIAS 01:04:07 9.55 00:06:17 351Séniors 192
806 7438 DAMOISAUX-DELNOY JADE 01:04:08 9.54 00:06:17 99Dames 191
807 7503 DAMOISEAUX-DELNOY IRIS 01:04:09 9.54 00:06:17 100Dames 190
808 3152 AELBERTS JEAN-MICHEL 01:04:09 9.54 00:06:17 162Vétérans 1 189
809 3414 VANDE VIJVER MORGANE 01:04:10 9.54 00:06:17 101Dames 188
810 3371 PIROTTE BENJAMIN 01:04:10 9.54 00:06:17 352Séniors 187
811 7314 JEUSETTE BERNARD 01:04:15 9.53 00:06:18 63Vétérans 2 186
812 7238 MICHEL LAURALINE 01:04:15 9.53 00:06:18 102Dames 185
813 3427 VIATOUR LÉO 01:04:16 9.52 00:06:18 ?
814 3242 GALLET ADELINE 01:04:16 9.52 00:06:18 103Dames 184
815 7081 DOCQUIER RUDE 01:04:17 9.52 00:06:18 64Vétérans 2 183 SPORT ET FUN
816 3385 RENARD LAURIE 01:04:18 9.52 00:06:18 104Dames 182
817 3305 LAROCK ANTHONY 01:04:19 9.52 00:06:18 353Séniors 181
818 3072 RIGA STÉPHANE 01:04:21 9.51 00:06:19 65Vétérans 2 180 FOULÉES DU PLAISIR
819 7135 MOKEDDEN KADOUR 01:04:21 9.51 00:06:19 66Vétérans 2 179
820 3177 CAMPION MORGANE 01:04:24 9.5 00:06:19 105Dames 178
821 3255 GODFIRNON LOLA 01:04:24 9.5 00:06:19 106Dames 177
822 7352 WOLK BERENGERE 01:04:24 9.5 00:06:19 107Dames 176
823 7351 WOLK MARIE 01:04:25 9.5 00:06:19 108Dames 175
824 3157 ANDRÉ GEOFFREY 01:04:25 9.5 00:06:19 354Séniors 174
825 3401 STASSE JEAN-PIERRE 01:04:36 9.47 00:06:20 67Vétérans 2 173
826 7401 DEGUELDRE CECILE 01:04:37 9.47 00:06:20 34Ainées 1 172
827 7770 ROGGEMANS XAVIER 01:04:37 9.47 00:06:20 355Séniors 171
828 3428 VOS CLAIRE 01:04:37 9.47 00:06:20 17Ainées 2 170
829 3070 GRIGNET KELLY 01:04:39 9.47 00:06:20 109Dames 169 FOULÉES DU PLAISIR
830 7399 BOVE PASQUALE 01:04:41 9.46 00:06:20 68Vétérans 2 168
831 7709 PASQUES FLORIAN 01:04:42 9.46 00:06:21 356Séniors 166
832 3245 GEMIS CLAUDE 01:04:44 9.45 00:06:21 20Vétérans 3 165
833 7366 SCHMIT SANDRINE 01:04:46 9.45 00:06:21 35Ainées 1 164 LA BANDA
834 3162 BENITEZ EMMANUEL 01:04:47 9.45 00:06:21 357Séniors 163
835 7420 GARATE SABRINA 01:04:47 9.45 00:06:21 110Dames 162
836 3057 SAVONA ROSALIA 01:04:52 9.43 00:06:22 111Dames 161 AMAY
837 106 MERCIER SYLVIE 01:04:53 9.43 00:06:22 36Ainées 1 160 RDV RUN BEYNE HEUSAY
838 69 JULIN PASCAL 01:05:00 9.42 00:06:22 358Séniors 159 AMC MEHAGNE
839 7559 BAIRIN MANUEL 01:05:00 9.42 00:06:22 359Séniors 158
840 7357 DEVIVIER NICOLAS 01:05:01 9.41 00:06:22 360Séniors 157
841 3045 LIESENS VINCIANE 01:05:07 9.4 00:06:23 37Ainées 1 156 KIWANIS - SAINT-LOUIS
842 3044 LAHAYE-GOFFART MARIANNE 01:05:08 9.4 00:06:23 18Ainées 2 155 KIWANIS - SAINT-LOUIS
843 7729 MARECHAL RAPHAEL 01:05:14 9.38 00:06:24 163Vétérans 1 154
844 3000 DAINE FABIENNE 01:05:16 9.38 00:06:24 38Ainées 1 153 BODY ATTACK WANZE
845 7417 DEVOS JEAN-DANIEL 01:05:19 9.37 00:06:24 69Vétérans 2 152
846 7139 FLAMMANG CAMILLE 01:05:21 9.36 00:06:24 112Dames 151
847 7140 WILLEM ROMUALD 01:05:21 9.36 00:06:24 361Séniors 150
848 7047 ZEGUERS ERIC 01:05:24 9.36 00:06:25 70Vétérans 2 149 KIWANIS
849 7347 PESESSE VIRGINIE 01:05:26 9.35 00:06:25 113Dames 148
850 7404 LEKEU BRYAN 01:05:36 9.33 00:06:26 362Séniors 147
851 3351 OGER ALINE 01:05:37 9.33 00:06:26 114Dames 146
852 7433 WILEUR INGRID 01:05:37 9.33 00:06:26 39Ainées 1 145
853 3119 BURNAY DAVID 01:05:37 9.33 00:06:26 363Séniors 144 LES EOLES
854 7189 WILMOTTE ANNE 01:05:38 9.32 00:06:26 19Ainées 2 143
855 7748 HENUSET LAURENCE 01:05:39 9.32 00:06:26 115Dames 142
856 7394 COLLARD ARIELLE 01:05:40 9.32 00:06:26 40Ainées 1 141 JCPMF HERON
857 7734 PLEWIAK LAURENT 01:05:42 9.32 00:06:26 164Vétérans 1 140 YLOVE RUNNING LIEGE
858 7570 LAMBERT VINCIANE 01:05:44 9.31 00:06:27 41Ainées 1 139
859 7006 VANDEN BUSSCHE YVETTE 01:05:57 9.28 00:06:28 20Ainées 2 138
860 7378 RAPPE CAROLINE 01:06:30 9.2 00:06:31 116Dames 137
861 3025 CHAMPON QUENTIN 01:06:30 9.2 00:06:31 47Espoirs H 136 INSTITUT SAINTE-MARIE
862 3054 DELVAUX GILLES 01:06:39 9.18 00:06:32 165Vétérans 1 135 MR BRICOLAGE HUY
863 7295 NOUITI HAYAT 01:06:46 9.17 00:06:33 117Dames 134
864 7324 BORGS JOSE 01:06:47 9.16 00:06:33 166Vétérans 1 133 JCPMF FLEMALLE
865 7743 LEROY OLIVIER 01:06:56 9.14 00:06:34 364Séniors 132
866 3221 DOYE SÉBASTIEN 01:06:57 9.14 00:06:34 42Ainées 1 131
867 7068 MOLLON MANUEL 01:07:02 9.13 00:06:34 71Vétérans 2 130
868 7056 ELAERTS CAROLINE 01:07:02 9.13 00:06:34 118Dames 129
869 7167 DROZDZOWSKI CARMEN 01:07:12 9.11 00:06:35 21Ainées 2 128
870 3102 VANBERGEN ROMUALD 01:07:16 9.1 00:06:36 72Vétérans 2 127 JCPMF FLÉMALLE
871 7614 DAVIVIER KATHLENE 01:07:23 9.08 00:06:36 119Dames 126
872 7775 MIGNOLET MURIEL 01:07:28 9.07 00:06:37 22Ainées 2 125
873 7616 ARETINO VIRGINIE 01:07:32 9.06 00:06:37 43Ainées 1 124
874 7615 AOUICNA ANTOINE 01:07:33 9.06 00:06:37 365Séniors 123
875 7032 DUCAMP JEAN-POL 01:07:35 9.06 00:06:38 21Vétérans 3 122 LES EOLES
876 7026 FIEVEZ ERIC 01:07:36 9.05 00:06:38 73Vétérans 2 121 LES EOLES
877 7058 JOIRET MARGAUX 01:07:40 9.04 00:06:38 120Dames 120
878 7155 MERTENS ANNE-MARIE 01:07:41 9.04 00:06:38 23Ainées 2 118 JCPMF FLEMALLE
879 7174 TCHEKEROUL ISABELLE 01:07:45 9.03 00:06:39 44Ainées 1 117
880 7051 LECOMTE ALICE 01:07:46 9.03 00:06:39 121Dames 116
881 3286 KIMPLAIRE CINDY 01:07:47 9.03 00:06:39 122Dames 115
882 7463 CONSTANT STEPHANIE 01:07:52 9.02 00:06:39 123Dames 114
883 3431 WARNAND ERIC 01:07:57 9.01 00:06:40 45Ainées 1 113
884 3110 PUTRONE LAURENCE 01:07:57 9.01 00:06:40 46Ainées 1 112 JCPMF WANZE
885 7457 LHEUREUX VINCENT 01:07:57 9.01 00:06:40 74Vétérans 2 111
886 3321 LIESSE ANOUCHKA 01:08:01 9 00:06:40 124Dames 110
887 7769 THONNART PHILIPPE 01:08:02 9 00:06:40 167Vétérans 1 109
888 3426 VIATOUR ERIC 01:08:10 8.98 00:06:41 75Vétérans 2 108
889 7258 HOYOUX CRISTEL 01:08:13 8.97 00:06:41 47Ainées 1 107
890 7104 ADAM CHRISTELLE 01:08:30 8.93 00:06:43 48Ainées 1 106
891 7105 PRAILLET PASCAL 01:08:31 8.93 00:06:43 168Vétérans 1 105
892 7019 REGNIER ELISE 01:08:33 8.93 00:06:43 125Dames 104
893 7018 THIRY DAMIEN 01:08:33 8.93 00:06:43 366Séniors 103
894 3109 LEHAIRE MYRIAM 01:08:34 8.93 00:06:43 24Ainées 2 102 JCPMF WANZE
895 7788 GENDEBIEN FREDERIC 01:08:38 8.92 00:06:44 367Séniors 101 I LOVE RUNNING LIEGE
896 7789 MARTINEZ PABLOS LIZA 01:08:38 8.92 00:06:44 5Espoirs D 100
897 7791 DOEMER SYLVAIN 01:08:38 8.92 00:06:44 48Espoirs H 99
898 3231 ESNAULT ROBIN 01:09:03 8.86 00:06:46 49Espoirs H 98
899 7291 PETIT THOMAS 01:09:12 8.84 00:06:47 368Séniors 97
900 7290 MALONG GABRIELLE 01:09:12 8.84 00:06:47 25Ainées 2 96
901 7289 JANSSEN JEAN-LUC 01:09:13 8.84 00:06:47 169Vétérans 1 95
902 3144 CRANINX PATRICK 01:09:16 8.84 00:06:47 76Vétérans 2 94 W.A.C.
903 7264 POLLARA PINO 01:09:29 8.81 00:06:49 77Vétérans 2 93 SERUNNERS
904 7143 MOULIN FRANÇOISE 01:09:31 8.8 00:06:49 26Ainées 2 92
905 7731 TASSOUL ANNE 01:09:32 8.8 00:06:49 27Ainées 2 91 LES ECOLES
906 7159 COENEN CAMILLE 01:09:33 8.8 00:06:49 126Dames 90 JCPMF FLEMALLE
907 7021 THONON OLIVIER 01:09:38 8.79 00:06:50 170Vétérans 1 89 LES FOULÉES DU PLAISIR
908 7022 MASSET ANNE 01:09:38 8.79 00:06:50 49Ainées 1 88
909 7083 LARUELLE TERRY 01:09:46 8.77 00:06:50 369Séniors 87
910 7034 PAULUS LAURENCE 01:09:46 8.77 00:06:50 171Vétérans 1 86
911 7082 DE LUNARDO ADELINE 01:09:47 8.77 00:06:50 127Dames 85 JCPMF HUY
912 7437 DELHALLE FRANCINE 01:09:48 8.77 00:06:51 28Ainées 2 84
913 7760 ODEURS JEAN-CLAUD 01:10:20 8.7 00:06:54 22Vétérans 3 83 LES SOEURS D AWANS
914 7199 NEUVILLE AURORE 01:10:28 8.68 00:06:55 128Dames 82
915 7137 MEERS MADY 01:10:41 8.66 00:06:56 129Dames 81
916 3266 HELAS ROMAIN 01:10:44 8.65 00:06:56 50Espoirs H 80
917 7736 HARDY DAVID 01:10:50 8.64 00:06:57 370Séniors 79
918 7198 NEUVILLE INGRID 01:10:57 8.63 00:06:57 130Dames 78
919 7115 DREYE ARLETTE 01:11:00 8.62 00:06:58 1Ainées 3 77
920 7333 BAUMANS LAURA 01:11:00 8.62 00:06:58 131Dames 76
921 3181 CESAR JONATHAN 01:11:00 8.62 00:06:58 371Séniors 75
922 7583 VOSSEN AURELIE 01:11:12 8.6 00:06:59 132Dames 74
923 3399 SPAGNOLETTI SANDRA 01:11:12 8.6 00:06:59 50Ainées 1 73
924 7465 VANOLANDE MARC 01:11:16 8.59 00:06:59 78Vétérans 2 72
925 3435 WINAND VALÉRIE 01:11:19 8.58 00:06:60 51Ainées 1 70
926 3419 VAROTTO CLOTILDE 01:11:23 8.57 00:06:60 133Dames 69
927 7141 RENAETS ARNAUD 01:11:42 8.54 00:07:02 372Séniors 68
928 7472 VAES MARIE 01:11:43 8.53 00:07:02 52Ainées 1 67
929 7710 GREVESSE RENAUD 01:12:03 8.49 00:07:04 373Séniors 66 JCPMF HUY
930 3212 DELMAL SOPHIE 01:12:13 8.47 00:07:05 134Dames 65
931 3197 DAVID BERNADETTE 01:12:41 8.42 00:07:08 2Ainées 3 64
932 7243 MATHOT JOEL 01:12:55 8.39 00:07:09 79Vétérans 2 63 LES FRELONS
933 7072 BADA ARIANE 01:13:03 8.38 00:07:010 53Ainées 1 62
934 7074 VIROUX CLAUDIA 01:13:03 8.38 00:07:010 29Ainées 2 61
935 7031 MANGUETTE NICOLAS 01:13:04 8.38 00:07:010 374Séniors 60 P8
936 7711 PRINCE LOUIS 01:13:05 8.37 00:07:010 375Séniors 59
937 3103 THEYS VIRGINIE 01:13:07 8.37 00:07:10 54Ainées 1 58 JCPMF HUY
938 3093 SCALAIS CATHERINE 01:13:08 8.37 00:07:10 30Ainées 2 57 JCPMF
939 3191 CREME DANY 01:13:09 8.37 00:07:10 80Vétérans 2 56
940 3417 VANDEZANDE JONATHAN 01:13:11 8.36 00:07:10 376Séniors 55
941 3298 LAMBERT ELISE 01:13:12 8.36 00:07:11 135Dames 54
942 3280 KELDERMANS STEF 01:13:17 8.35 00:07:11 51Espoirs H 53
943 7112 INNAURATO PATRICIA 01:13:19 8.35 00:07:11 55Ainées 1 52 JCPMF HUY
944 3001 FOURGEAUX SOPHIE 01:13:23 8.34 00:07:12 136Dames 51 BODY ATTACK WANZE
945 3003 MASSON MURIELLE 01:13:23 8.34 00:07:12 56Ainées 1 50 BODY ATTACK WANZE
946 3049 WOJNOWSKI AUDREY 01:13:23 8.34 00:07:12 137Dames 49 KIWANIS - SAINT-LOUIS
947 3004 MASSON VÉRONIQUE 01:13:23 8.34 00:07:12 57Ainées 1 48 BODY ATTACK WANZE
948 7434 HUBERT LAURENCE 01:13:23 8.34 00:07:12 58Ainées 1 47
949 3360 PETRY MÉLANIE 01:13:34 8.32 00:07:13 138Dames 46
950 3089 HATERT BENEDICTE 01:13:44 8.3 00:07:14 139Dames 45 HUY JE COURS PARTOUT
951 3111 GODEFROID ZOÉ 01:13:49 8.29 00:07:14 6Espoirs D 44 JCPMFF
952 7224 MARISSIAUX PIERRE 01:13:49 8.29 00:07:14 172Vétérans 1 43
953 7343 GODEFROID ROMAIN 01:13:54 8.28 00:07:15 52Espoirs H 42
954 7717 BURON JEAN-PAUL 01:14:28 8.22 00:07:18 23Vétérans 3 41
955 3375 PRAILLET KATIA 01:14:36 8.2 00:07:19 140Dames 40
956 7063 RONZULLO MICHELLA 01:14:54 8.17 00:07:21 59Ainées 1 39 JCPM
957 7062 DUBOIS GENEVIEVE 01:14:54 8.17 00:07:21 60Ainées 1 38 JCPMF HUY
958 3358 PARADOWSKI TAMARA 01:14:56 8.17 00:07:21 377Séniors 37
959 7584 TICHAN LAURIE 01:15:39 8.09 00:07:25 141Dames 36
960 3116 MACCAN STEFANIA 01:15:47 8.08 00:07:26 61Ainées 1 35 JE COURS POUR MA FORME FLEMALLE
961 3100 JUSKOWIAK PATRICK 01:15:47 8.08 00:07:26 81Vétérans 2 34 JCPMF FLÉMALLE
962 3101 PAVONI DOMINIQUE 01:15:47 8.08 00:07:26 31Ainées 2 33 JCPMF FLÉMALLE
963 3113 DI STEFANO BRUNO 01:15:48 8.07 00:07:26 378Séniors 32 JE COURS POUR MA FORME
964 3114 LACROIX SARAH 01:16:22 8.01 00:07:29 142Dames 31 JE COURS POUR MA FORME
965 3112 CHARLIER MÉLISSA 01:16:23 8.01 00:07:29 143Dames 30 JE COURS POUR MA FORME
966 3092 OGER MAUREEN 01:16:23 8.01 00:07:29 144Dames 29 JCPMF
967 3263 HARISSIS ATHINA 01:18:05 7.84 00:07:39 145Dames 28
968 3246 GENOT FABIENNE 01:18:06 7.84 00:07:39 32Ainées 2 27
969 3174 BURLET VERONIQUE 01:18:07 7.83 00:07:40 62Ainées 1 26
970 3098 GILSON PASCALE 01:18:35 7.79 00:07:42 63Ainées 1 25 JCPMF FLEMALLE
971 3373 POISQUET FANNY 01:18:38 7.78 00:07:43 146Dames 23
972 3097 GILLOT CORINNE 01:18:40 7.78 00:07:43 64Ainées 1 22 JCPMF FLEMALLE
973 7359 FRISSCHEN STEPHANIE 01:18:45 7.77 00:07:43 65Ainées 1 21 JCPMF HUY
974 7360 BOURGUIGNON MARTINE 01:19:09 7.73 00:07:46 33Ainées 2 20 JCPMF HUY
975 7153 HAUTECLER CHRISTIAN 01:19:28 7.7 00:07:47 24Vétérans 3 19 JCPMF FLEMALLE
976 3133 CATOUL OLIVIER 01:19:28 7.7 00:07:47 379Séniors 18 RUN ESSENCE
977 2317 MICHOTTE VALERIE 01:19:36 7.69 00:07:48 66Ainées 1 17
978 3018 COENEN PAULINE 01:19:46 7.67 00:07:49 7Espoirs D 16 ABBAYE DE FLÔNE
979 7035 FLORKIN FREDERIC 01:19:50 7.67 00:07:50 82Vétérans 2 15
980 7203 GHINEA MIRAELA 01:19:50 7.67 00:07:50 67Ainées 1 14 JCPMF HUY
981 3096 DAVIN LISE 01:20:12 7.63 00:07:52 147Dames 13 JCPMF FLEMALLE
982 3068 KRAMER STEVEN 01:20:43 7.58 00:07:55 83Vétérans 2 12 FLÉMALLE
983 3365 PIERRE CHARLOTTE 01:20:51 7.57 00:07:56 148Dames 11
984 3430 WALRANT MARIE 01:20:52 7.57 00:07:56 149Dames 10
985 7705 LIZEN AXELLE 01:21:24 7.52 00:07:59 150Dames 9
986 7706 CAPITANO LINDA 01:21:24 7.52 00:07:59 34Ainées 2 8
987 3106 BOZET CARINE 01:21:24 7.52 00:07:59 68Ainées 1 7 JCPMF WANZE
988 7008 LEKEU JOEY 01:23:46 7.31 00:08:13 380Séniors 6 RUN ESSENCE
989 3137 DE LUCA GERARDO 01:23:48 7.3 00:08:13 173Vétérans 1 5 SWDE
990 3195 CUTAIA ANTONIO 01:23:48 7.3 00:08:13 25Vétérans 3 4
991 7496 PAULUS SAMANTHA 01:23:52 7.3 00:08:13 8Espoirs D 3
992 3117 PIAZZA PHILIPPE 01:33:32 6.54 00:09:10 174Vétérans 1 2 JE COURS POUR MA FORME FLEMALLE
993 3205 DEGHILAGE DANY 01:42:52 5.95 00:10:05 381Séniors 1
Huy Night Run 2018
Distance : 10.2 kms
993 coureurs
Normal Interclubs